Air Quality Table

TIMESTAMP NO2 SO2 O3 PM10 PM2.5 TEMP HUM AIRPRES WS WD NO
2023-01-30 03:00 4.66 µg/m3 0.2 µg/m3 73.27 µg/m3 17.27 µg/m3 6.85 µg/m3 10.17 °C 81.7 % 1,013.15 mbar 2.36 m/s 326.77 Deg -0.15 µg/m3
2023-01-30 02:00 2.92 µg/m3 0.17 µg/m3 76.57 µg/m3 13.11 µg/m3 6.71 µg/m3 11.26 °C 83.23 % 1,012.94 mbar 3.74 m/s 266.82 Deg -0.11 µg/m3
2023-01-30 01:00 4.98 µg/m3 0.13 µg/m3 73.41 µg/m3 13.29 µg/m3 6.16 µg/m3 12.02 °C 79.59 % 1,012.63 mbar 4.04 m/s 36.27 Deg 0.23 µg/m3
2023-01-30 00:00 5.71 µg/m3 0.12 µg/m3 72.45 µg/m3 15.89 µg/m3 8.3 µg/m3 11.83 °C 80.61 % 1,012.82 mbar 3.12 m/s 21.13 Deg -0.01 µg/m3
2023-01-29 23:00 7.7 µg/m3 0.19 µg/m3 73.42 µg/m3 16.03 µg/m3 9.05 µg/m3 11.17 °C 87.03 % 1,012.84 mbar 2.94 m/s 30.98 Deg 2.95 µg/m3
2023-01-29 22:00 7.7 µg/m3 0.19 µg/m3 74.93 µg/m3 22.38 µg/m3 11.65 µg/m3 11.43 °C 85.89 % 1,012.79 mbar 2.04 m/s 39.43 Deg 2.66 µg/m3
2023-01-29 21:00 11.05 µg/m3 0.23 µg/m3 70.98 µg/m3 22.14 µg/m3 6.74 µg/m3 9.7 °C 97.25 % 1,012.38 mbar 3.27 m/s 181.53 Deg 1.39 µg/m3
2023-01-29 20:00 27.96 µg/m3 0.24 µg/m3 54.81 µg/m3 14.38 µg/m3 6.4 µg/m3 9.28 °C 99.03 % 1,012.22 mbar 2.72 m/s 324.25 Deg 2.25 µg/m3
2023-01-29 19:00 19.93 µg/m3 0.22 µg/m3 61.18 µg/m3 15.4 µg/m3 6.22 µg/m3 9.81 °C 98.2 % 1,012.02 mbar 1.49 m/s 168.62 Deg 2.61 µg/m3
2023-01-29 18:00 8.52 µg/m3 0.2 µg/m3 74.02 µg/m3 11.23 µg/m3 5.32 µg/m3 10.55 °C 86.39 % 1,011.67 mbar 3.6 m/s 31.57 Deg 0.64 µg/m3
2023-01-29 17:00 5.09 µg/m3 0.15 µg/m3 78.16 µg/m3 10.63 µg/m3 5.33 µg/m3 12.09 °C 72.71 % 1,010.90 mbar 3.81 m/s 36.57 Deg 0.45 µg/m3
2023-01-29 16:00 5.43 µg/m3 0.18 µg/m3 77.06 µg/m3 10.89 µg/m3 4.08 µg/m3 12.4 °C 76.83 % 1,010.68 mbar 4.22 m/s 30.8 Deg 0.68 µg/m3
2023-01-29 15:00 5.44 µg/m3 0.18 µg/m3 76.12 µg/m3 10.13 µg/m3 3.81 µg/m3 12.63 °C 75.21 % 1,010.48 mbar 4.48 m/s 32.25 Deg 0.76 µg/m3
2023-01-29 14:00 5.69 µg/m3 0.22 µg/m3 76.45 µg/m3 10.6 µg/m3 4.74 µg/m3 12.89 °C 73.58 % 1,010.62 mbar 3.92 m/s 27.9 Deg 0.93 µg/m3
2023-01-29 13:00 6.13 µg/m3 0.21 µg/m3 76.4 µg/m3 9.85 µg/m3 5.22 µg/m3 12.92 °C 71.57 % 1,011.22 mbar 3.6 m/s 28.33 Deg 1.03 µg/m3
2023-01-29 12:00 7.86 µg/m3 0.2 µg/m3 73.09 µg/m3 8.94 µg/m3 5.3 µg/m3 12.88 °C 70.68 % 1,011.79 mbar 3.25 m/s 27.6 Deg 1.57 µg/m3
2023-01-29 11:00 9.15 µg/m3 0.23 µg/m3 71.22 µg/m3 9.67 µg/m3 4.15 µg/m3 12.5 °C 72.17 % 1,011.91 mbar 3.63 m/s 32.7 Deg 1.69 µg/m3
2023-01-29 10:00 9.08 µg/m3 0.22 µg/m3 72.27 µg/m3 7.68 µg/m3 4.74 µg/m3 12.43 °C 72.15 % 1,011.33 mbar 3.42 m/s 34.17 Deg 1.61 µg/m3
2023-01-29 09:00 27.2 µg/m3 0.35 µg/m3 51.11 µg/m3 10.03 µg/m3 6.02 µg/m3 11.31 °C 75.81 % 1,010.78 mbar 2.01 m/s 176.07 Deg 6.39 µg/m3
2023-01-29 08:00 35.78 µg/m3 0.27 µg/m3 37.48 µg/m3 10.38 µg/m3 5.08 µg/m3 9.34 °C 86.79 % 1,010.13 mbar 1.37 m/s 331.15 Deg 5.01 µg/m3
2023-01-29 07:00 15.56 µg/m3 0.2 µg/m3 56.62 µg/m3 9.78 µg/m3 5.53 µg/m3 9.03 °C 88.84 % 1,009.83 mbar 1.88 m/s 311.92 Deg 0.7 µg/m3
2023-01-29 06:00 11.16 µg/m3 0.22 µg/m3 56.22 µg/m3 10.36 µg/m3 6.11 µg/m3 8.96 °C 90.54 % 1,009.55 mbar 1.87 m/s 306.55 Deg 0.27 µg/m3
2023-01-29 05:00 9.27 µg/m3 0.23 µg/m3 58.58 µg/m3 10.4 µg/m3 6.29 µg/m3 9.06 °C 89.62 % 1,009.24 mbar 1.97 m/s 303 Deg 0.34 µg/m3
2023-01-29 04:00 7.93 µg/m3 0.26 µg/m3 57.19 µg/m3 10.48 µg/m3 6.55 µg/m3 9.09 °C 90.93 % 1,009.16 mbar 1.82 m/s 292.73 Deg 0.11 µg/m3
2023-01-29 03:00 6.05 µg/m3 0.15 µg/m3 62.65 µg/m3 12.08 µg/m3 8.34 µg/m3 9.51 °C 89.33 % 1,009.03 mbar 1.66 m/s 289.7 Deg -0.07 µg/m3
2023-01-29 02:00 6.52 µg/m3 0.2 µg/m3 66.36 µg/m3 13.41 µg/m3 6.09 µg/m3 9.74 °C 86.2 % 1,009.02 mbar 1.75 m/s 286.52 Deg -0.05 µg/m3
2023-01-29 01:00 11.36 µg/m3 0.21 µg/m3 71.19 µg/m3 16.34 µg/m3 7.08 µg/m3 9.95 °C 75.64 % 1,008.68 mbar 1.98 m/s 293.5 Deg 0.22 µg/m3
2023-01-29 00:00 7.35 µg/m3 0.22 µg/m3 78.07 µg/m3 23.78 µg/m3 7.13 µg/m3 8.57 °C 91.2 % 1,009.26 mbar 2.49 m/s 322.6 Deg 0.29 µg/m3
2023-01-28 23:00 8.31 µg/m3 0.2 µg/m3 73.76 µg/m3 21.21 µg/m3 10.83 µg/m3 9.24 °C 90.65 % 1,008.91 mbar 2.34 m/s 320.67 Deg 0.21 µg/m3
2023-01-28 22:00 14.36 µg/m3 0.25 µg/m3 64.51 µg/m3 29.07 µg/m3 9.36 µg/m3 9.6 °C 89.07 % 1,008.38 mbar 1.95 m/s 291.53 Deg 0.66 µg/m3
2023-01-28 21:00 39.68 µg/m3 0.27 µg/m3 36.48 µg/m3 17.32 µg/m3 5.19 µg/m3 9.31 °C 90.09 % 1,007.89 mbar 1.62 m/s 255.1 Deg 2.22 µg/m3
2023-01-28 20:00 28.81 µg/m3 0.28 µg/m3 55.17 µg/m3 10.71 µg/m3 6.54 µg/m3 9.04 °C 89.73 % 1,007.57 mbar 1.68 m/s 297.02 Deg 4.9 µg/m3
2023-01-28 19:00 25.6 µg/m3 0.26 µg/m3 58.2 µg/m3 12.61 µg/m3 5.19 µg/m3 9.73 °C 81.82 % 1,007.20 mbar 2.61 m/s 297.75 Deg 2.82 µg/m3
2023-01-28 18:00 33.17 µg/m3 0.25 µg/m3 49.27 µg/m3 17.81 µg/m3 5.67 µg/m3 10.41 °C 79.81 % 1,006.46 mbar 1.45 m/s 307.37 Deg 2.27 µg/m3
2023-01-28 17:00 23.94 µg/m3 0.26 µg/m3 59.04 µg/m3 14.89 µg/m3 6.58 µg/m3 10.59 °C 82.41 % 1,006.12 mbar 1.52 m/s 292.62 Deg 3.39 µg/m3
2023-01-28 16:00 20.31 µg/m3 0.21 µg/m3 65.25 µg/m3 12.42 µg/m3 6.61 µg/m3 10.36 °C 79.33 % 1,005.64 mbar 2.37 m/s 283.3 Deg 1.24 µg/m3
2023-01-28 15:00 21.84 µg/m3 0.23 µg/m3 61.87 µg/m3 12.69 µg/m3 6.24 µg/m3 10.46 °C 78.55 % 1,005.15 mbar 1.73 m/s 272.1 Deg 1.97 µg/m3
2023-01-28 14:00 17.54 µg/m3 0.26 µg/m3 68.4 µg/m3 16.54 µg/m3 7.62 µg/m3 12.01 °C 70.21 % 1,004.97 mbar 2.25 m/s 300.72 Deg 3.05 µg/m3
2023-01-28 13:00 21.3 µg/m3 0.35 µg/m3 66.36 µg/m3 19.73 µg/m3 8.63 µg/m3 12.36 °C 70.94 % 1,005.32 mbar 1.65 m/s 280.6 Deg 4.73 µg/m3
2023-01-28 12:00 20.89 µg/m3 0.35 µg/m3 65.99 µg/m3 10.74 µg/m3 11.06 µg/m3 12.08 °C 71.79 % 1,005.78 mbar 2.06 m/s 341.98 Deg 4.23 µg/m3
2023-01-28 11:00 50.55 µg/m3 0.58 µg/m3 37.98 µg/m3 8.18 µg/m3 5.74 µg/m3 11.23 °C 80.9 % 1,006.20 mbar 1.24 m/s 307.45 Deg 22.83 µg/m3
2023-01-28 10:00 68.1 µg/m3 0.56 µg/m3 18.66 µg/m3 7.16 µg/m3 5.85 µg/m3 9.3 °C 86.71 % 1,006.05 mbar 0.84 m/s 309.78 Deg 24.08 µg/m3
2023-01-28 09:00 38.52 µg/m3 0.33 µg/m3 46.82 µg/m3 8.97 µg/m3 6.07 µg/m3 9.66 °C 82.11 % 1,005.40 mbar 2.15 m/s 324.75 Deg 5.97 µg/m3
2023-01-28 08:00 71.09 µg/m3 0.52 µg/m3 16.61 µg/m3 10.61 µg/m3 5.29 µg/m3 10.09 °C 76.93 % 1,004.90 mbar 0.92 m/s 300.21 Deg 26.11 µg/m3
2023-01-28 07:00 46.88 µg/m3 0.23 µg/m3 34.96 µg/m3 11.16 µg/m3 4.87 µg/m3 9.63 °C 79.61 % 1,004.69 mbar 1.36 m/s 293.62 Deg 6.17 µg/m3
2023-01-28 06:00 15.73 µg/m3 0.14 µg/m3 66.74 µg/m3 10.89 µg/m3 6.11 µg/m3 9.86 °C 78.94 % 1,004.55 mbar 1.41 m/s 287.83 Deg 0.65 µg/m3
2023-01-28 05:00 3.84 µg/m3 0.18 µg/m3 78.67 µg/m3 10.15 µg/m3 6.17 µg/m3 9.94 °C 76.41 % 1,004.35 mbar 1.78 m/s 284.57 Deg -0.13 µg/m3
2023-01-28 04:00 3.76 µg/m3 0.23 µg/m3 76.41 µg/m3 9.98 µg/m3 7.2 µg/m3 9.33 °C 82.32 % 1,004.47 mbar 1.87 m/s 285 Deg -0.05 µg/m3
2023-01-28 03:00 4.78 µg/m3 0.15 µg/m3 74.1 µg/m3 8.24 µg/m3 7.59 µg/m3 8.99 °C 85.25 % 1,004.54 mbar 1.65 m/s 309.22 Deg -0.08 µg/m3
2023-01-28 02:00 5.83 µg/m3 0.18 µg/m3 71.96 µg/m3 10.21 µg/m3 9.92 µg/m3 9.97 °C 86.6 % 1,004.22 mbar 2.22 m/s 295.38 Deg -0.08 µg/m3
2023-01-28 01:00 15.65 µg/m3 0.18 µg/m3 55.51 µg/m3 12.48 µg/m3 9.7 µg/m3 10.1 °C 85.67 % 1,004.27 mbar 1.49 m/s 304.3 Deg 0.34 µg/m3
2023-01-28 00:00 22.06 µg/m3 0.21 µg/m3 46.08 µg/m3 17.2 µg/m3 6.66 µg/m3 10.09 °C 88.07 % 1,004.33 mbar 1.41 m/s 300.73 Deg 0.77 µg/m3
2023-01-27 23:00 20.28 µg/m3 0.2 µg/m3 52.66 µg/m3 24.93 µg/m3 8.8 µg/m3 10.19 °C 86.16 % 1,004.38 mbar 1.56 m/s 293.57 Deg 1.01 µg/m3
2023-01-27 22:00 17.42 µg/m3 0.2 µg/m3 62.23 µg/m3 39.18 µg/m3 12.85 µg/m3 10.23 °C 83.39 % 1,004.08 mbar 1.57 m/s 310.2 Deg 0.72 µg/m3
2023-01-27 21:00 29.56 µg/m3 0.25 µg/m3 44.29 µg/m3 37.96 µg/m3 11.97 µg/m3 10.81 °C 89.88 % 1,004.08 mbar 1.57 m/s 297.58 Deg 1.72 µg/m3
2023-01-27 20:00 48.29 µg/m3 0.25 µg/m3 29.45 µg/m3 21.13 µg/m3 8.06 µg/m3 11.31 °C 83.2 % 1,003.41 mbar 1.29 m/s 304.21 Deg 5.17 µg/m3
2023-01-27 19:00 44.2 µg/m3 0.32 µg/m3 34.42 µg/m3 19.53 µg/m3 6.91 µg/m3 11.73 °C 80.08 % 1,002.67 mbar 1.28 m/s 316.62 Deg 5.97 µg/m3
2023-01-27 18:00 38.69 µg/m3 0.27 µg/m3 45.82 µg/m3 27.49 µg/m3 8 µg/m3 11.86 °C 80.27 % 1,001.86 mbar 1.75 m/s 315.38 Deg 4.4 µg/m3
2023-01-27 17:00 25.46 µg/m3 0.23 µg/m3 60.08 µg/m3 14.23 µg/m3 6.41 µg/m3 12.67 °C 74.47 % 1,001.38 mbar 2.85 m/s 311.22 Deg 3.85 µg/m3
2023-01-27 16:00 24.74 µg/m3 0.23 µg/m3 62.15 µg/m3 12.23 µg/m3 5.34 µg/m3 12.33 °C 79.51 % 1,000.68 mbar 2.65 m/s 326.55 Deg 3.75 µg/m3
2023-01-27 15:00 16.49 µg/m3 0.2 µg/m3 70.02 µg/m3 14.54 µg/m3 6.42 µg/m3 13.42 °C 66.44 % 999.88 mbar 3.58 m/s 329 Deg 3.5 µg/m3
2023-01-27 14:00 11.46 µg/m3 0.19 µg/m3 77.43 µg/m3 17.45 µg/m3 4.55 µg/m3 13.36 °C 68.04 % 999.45 mbar 3.64 m/s 330.5 Deg 2.61 µg/m3
2023-01-27 13:00 15.99 µg/m3 0.21 µg/m3 70.64 µg/m3 18.72 µg/m3 4.81 µg/m3 12.89 °C 74.23 % 999.28 mbar 3.84 m/s 326.68 Deg 3.37 µg/m3
2023-01-27 12:00 20.2 µg/m3 0.24 µg/m3 65.98 µg/m3 20.25 µg/m3 6.73 µg/m3 12.56 °C 75.82 % 999.69 mbar 2.88 m/s 325.43 Deg 4.12 µg/m3
2023-01-27 11:00 25.37 µg/m3 0.32 µg/m3 60.16 µg/m3 19.71 µg/m3 6.62 µg/m3 12.22 °C 79.7 % 999.53 mbar 2.8 m/s 332.37 Deg 8.87 µg/m3
2023-01-27 10:00 36.15 µg/m3 0.34 µg/m3 49.71 µg/m3 14.82 µg/m3 5.79 µg/m3 11.64 °C 84.55 % 998.86 mbar 2.34 m/s 325.75 Deg 6.31 µg/m3
2023-01-27 09:00 35.4 µg/m3 0.27 µg/m3 52.68 µg/m3 8.52 µg/m3 5.47 µg/m3 11.52 °C 85.77 % 998.00 mbar 2.42 m/s 324.62 Deg 6.14 µg/m3
2023-01-27 08:00 33.7 µg/m3 0.26 µg/m3 51.85 µg/m3 6.86 µg/m3 6.39 µg/m3 10.7 °C 88.47 % 997.35 mbar 2.36 m/s 315.17 Deg 4.88 µg/m3
2023-01-27 07:00 28.95 µg/m3 0.2 µg/m3 55.82 µg/m3 8.14 µg/m3 6.17 µg/m3 9.75 °C 93.69 % 997.22 mbar 2.37 m/s 325.73 Deg 4.31 µg/m3
2023-01-27 06:00 41.57 µg/m3 0.22 µg/m3 35.31 µg/m3 7.82 µg/m3 5.22 µg/m3 9.14 °C 95.56 % 997.17 mbar 0.9 m/s 291.25 Deg 2.99 µg/m3
2023-01-27 05:00 9.52 µg/m3 0.15 µg/m3 71.27 µg/m3 5.4 µg/m3 4.59 µg/m3 9.74 °C 92.94 % 997.08 mbar 2.94 m/s 318.02 Deg 0.12 µg/m3
2023-01-27 04:00 2.25 µg/m3 0.22 µg/m3 79.89 µg/m3 6.13 µg/m3 5.21 µg/m3 10.95 °C 83.28 % 997.57 mbar 3.69 m/s 274.9 Deg -0.14 µg/m3
2023-01-27 03:00 2.46 µg/m3 0.19 µg/m3 79.89 µg/m3 9.5 µg/m3 5.07 µg/m3 10.53 °C 84.26 % 998.14 mbar 3.59 m/s 275.2 Deg -0.15 µg/m3
2023-01-27 02:00 4.07 µg/m3 0.2 µg/m3 79.61 µg/m3 11.65 µg/m3 5.1 µg/m3 11.03 °C 71.58 % 998.77 mbar 2.59 m/s 269.82 Deg -0.11 µg/m3
2023-01-27 01:00 17.42 µg/m3 0.21 µg/m3 58.66 µg/m3 12.59 µg/m3 4.76 µg/m3 9.83 °C 79.45 % 999.33 mbar 1.05 m/s 300.15 Deg 0.19 µg/m3
2023-01-27 00:00 14.24 µg/m3 0.24 µg/m3 63.25 µg/m3 15.6 µg/m3 4.13 µg/m3 9.68 °C 78.85 % 999.90 mbar 1.35 m/s 275.48 Deg 0.42 µg/m3
2023-01-26 23:00 23.29 µg/m3 0.27 µg/m3 49.16 µg/m3 19.38 µg/m3 5.38 µg/m3 8.96 °C 83.3 % 1,000.59 mbar 1.56 m/s 292.83 Deg 0.71 µg/m3
2023-01-26 22:00 35.08 µg/m3 0.33 µg/m3 41.76 µg/m3 21.48 µg/m3 6.8 µg/m3 9.07 °C 85.22 % 1,000.91 mbar 1.22 m/s 287.7 Deg 2.99 µg/m3
2023-01-26 21:00 59.89 µg/m3 0.39 µg/m3 18.53 µg/m3 15.19 µg/m3 4.9 µg/m3 8.71 °C 93.06 % 1,001.13 mbar 1.08 m/s 284.35 Deg 5.65 µg/m3
2023-01-26 20:00 56.57 µg/m3 0.32 µg/m3 29.2 µg/m3 15.74 µg/m3 6.32 µg/m3 8.86 °C 90.34 % 1,000.81 mbar 1 m/s 320.42 Deg 3.79 µg/m3
2023-01-26 19:00 30.24 µg/m3 0.25 µg/m3 57.45 µg/m3 24.83 µg/m3 5.36 µg/m3 8.57 °C 91.92 % 1,000.81 mbar 1.5 m/s 256.53 Deg 1.82 µg/m3
2023-01-26 18:00 22.79 µg/m3 0.22 µg/m3 65.28 µg/m3 13.82 µg/m3 6.48 µg/m3 9.12 °C 81.56 % 1,000.41 mbar 3.08 m/s 318.92 Deg 2.32 µg/m3
2023-01-26 17:00 19.34 µg/m3 0.24 µg/m3 67.75 µg/m3 11.6 µg/m3 5.93 µg/m3 11.45 °C 63.98 % 999.85 mbar 3.21 m/s 285.03 Deg 1.6 µg/m3
2023-01-26 16:00 14.56 µg/m3 0.2 µg/m3 74.74 µg/m3 17.27 µg/m3 5.99 µg/m3 12.78 °C 56.14 % 999.89 mbar 3.53 m/s 280.83 Deg 1.68 µg/m3
2023-01-26 15:00 12.55 µg/m3 0.24 µg/m3 76.66 µg/m3 19.03 µg/m3 6.51 µg/m3 13.06 °C 56.76 % 999.94 mbar 4.07 m/s 272.68 Deg 1.63 µg/m3
2023-01-26 14:00 8.82 µg/m3 0.28 µg/m3 79.13 µg/m3 17.98 µg/m3 6.53 µg/m3 13.64 °C 53.86 % 1,000.30 mbar 4.49 m/s 258.82 Deg 1.74 µg/m3
2023-01-26 13:00 7.82 µg/m3 0.28 µg/m3 79.84 µg/m3 24.71 µg/m3 7.85 µg/m3 13.76 °C 53.76 % 1,001.08 mbar 4.84 m/s 256.67 Deg 1.5 µg/m3
2023-01-26 12:00 8.29 µg/m3 0.31 µg/m3 77.75 µg/m3 39.1 µg/m3 12.81 µg/m3 13.77 °C 52.34 % 1,002.06 mbar 3.91 m/s 253.12 Deg 1.61 µg/m3
2023-01-26 11:00 10.93 µg/m3 0.32 µg/m3 71.57 µg/m3 55.02 µg/m3 21.79 µg/m3 13.39 °C 54.09 % 1,002.77 mbar 3.75 m/s 262.08 Deg 1.91 µg/m3
2023-01-26 10:00 75.18 µg/m3 1.27 µg/m3 19.38 µg/m3 44.68 µg/m3 4.91 µg/m3 11.81 °C 70.75 % 1,002.93 mbar 1.12 m/s 297.52 Deg 65.04 µg/m3
2023-01-26 09:00 89.16 µg/m3 1.27 µg/m3 6.83 µg/m3 36.84 µg/m3 5.28 µg/m3 10.35 °C 77.66 % 1,002.94 mbar 1.07 m/s 332.9 Deg 79.82 µg/m3
2023-01-26 08:00 75.02 µg/m3 0.65 µg/m3 9.94 µg/m3 28.03 µg/m3 5.69 µg/m3 9.42 °C 82.9 % 1,003.11 mbar 1.08 m/s 323.25 Deg 32.92 µg/m3
2023-01-26 07:00 79 µg/m3 0.71 µg/m3 4.81 µg/m3 14.14 µg/m3 5.93 µg/m3 8.93 °C 88.05 % 1,003.33 mbar 0.95 m/s 317.85 Deg 39.04 µg/m3
2023-01-26 06:00 34.76 µg/m3 0.26 µg/m3 41.18 µg/m3 9.86 µg/m3 6.08 µg/m3 9.31 °C 87.04 % 1,003.58 mbar 0.93 m/s 324.05 Deg 3.86 µg/m3
2023-01-26 05:00 11.33 µg/m3 0.2 µg/m3 67.76 µg/m3 8.14 µg/m3 5.52 µg/m3 9.93 °C 83.3 % 1,003.97 mbar 1.08 m/s 325.62 Deg 0.32 µg/m3
2023-01-26 04:00 4 µg/m3 0.18 µg/m3 80.7 µg/m3 10.03 µg/m3 5.04 µg/m3 11.12 °C 66.95 % 1,004.25 mbar 2.03 m/s 309.07 Deg -0.08 µg/m3
2023-01-26 03:00 2.23 µg/m3 0.17 µg/m3 85.11 µg/m3 10.27 µg/m3 5.89 µg/m3 11.77 °C 59.09 % 1,004.47 mbar 3.17 m/s 271.72 Deg -0.15 µg/m3
2023-01-26 02:00 1.96 µg/m3 0.23 µg/m3 84.27 µg/m3 13.09 µg/m3 7.55 µg/m3 11.85 °C 67.38 % 1,004.80 mbar 3.42 m/s 255.2 Deg -0.17 µg/m3
2023-01-26 01:00 2.31 µg/m3 0.23 µg/m3 83.49 µg/m3 20.75 µg/m3 8.42 µg/m3 11.78 °C 67.31 % 1,005.45 mbar 2.8 m/s 239.43 Deg -0.1 µg/m3
2023-01-26 00:00 3.7 µg/m3 0.26 µg/m3 80.87 µg/m3 28.05 µg/m3 8.93 µg/m3 12.08 °C 66.17 % 1,006.05 mbar 2.5 m/s 230.15 Deg -0.05 µg/m3
2023-01-25 23:00 10.39 µg/m3 0.32 µg/m3 71.84 µg/m3 39.12 µg/m3 12.45 µg/m3 11.77 °C 71.79 % 1,006.79 mbar 1.49 m/s 228.55 Deg 0.12 µg/m3
2023-01-25 22:00 37.07 µg/m3 0.39 µg/m3 52.38 µg/m3 47.15 µg/m3 17.76 µg/m3 12.25 °C 66.32 % 1,007.34 mbar 0.99 m/s 227.45 Deg 2.92 µg/m3
2023-01-25 21:00 77.41 µg/m3 0.44 µg/m3 14.01 µg/m3 54.84 µg/m3 14.17 µg/m3 11.82 °C 68.82 % 1,007.65 mbar 0.84 m/s 323.43 Deg 9.96 µg/m3
2023-01-25 20:00 76.24 µg/m3 0.43 µg/m3 17.06 µg/m3 50.22 µg/m3 11.94 µg/m3 11.93 °C 69.12 % 1,007.82 mbar 1.12 m/s 297.05 Deg 13.15 µg/m3
2023-01-25 19:00 84.35 µg/m3 0.65 µg/m3 11.42 µg/m3 39.98 µg/m3 6.24 µg/m3 12.22 °C 69.26 % 1,007.92 mbar 1.04 m/s 291.62 Deg 23.59 µg/m3
2023-01-25 18:00 58.33 µg/m3 0.36 µg/m3 37.1 µg/m3 18.42 µg/m3 7.15 µg/m3 12.6 °C 66.55 % 1,007.81 mbar 0.93 m/s 320.45 Deg 6.39 µg/m3
2023-01-25 17:00 37.95 µg/m3 0.31 µg/m3 60.17 µg/m3 11.88 µg/m3 6.13 µg/m3 13.47 °C 63.47 % 1,007.82 mbar 1.45 m/s 323.5 Deg 6.44 µg/m3
2023-01-25 16:00 30.16 µg/m3 0.26 µg/m3 73.28 µg/m3 16.9 µg/m3 5.54 µg/m3 13.98 °C 60.51 % 1,007.82 mbar 1.94 m/s 301.75 Deg 6.42 µg/m3
2023-01-25 15:00 19.08 µg/m3 0.21 µg/m3 77.92 µg/m3 14.99 µg/m3 5.34 µg/m3 14.31 °C 60.83 % 1,007.88 mbar 2.25 m/s 291.62 Deg 3.2 µg/m3
2023-01-25 14:00 21.22 µg/m3 0.26 µg/m3 72.66 µg/m3 15.16 µg/m3 6.3 µg/m3 14.1 °C 66.63 % 1,008.32 mbar 2.24 m/s 307.17 Deg 3.85 µg/m3
2023-01-25 13:00 10.35 µg/m3 0.25 µg/m3 82.78 µg/m3 21.79 µg/m3 8.19 µg/m3 14.55 °C 62.58 % 1,009.08 mbar 2.14 m/s 256.17 Deg 1.63 µg/m3
2023-01-25 12:00 11.04 µg/m3 0.31 µg/m3 80.22 µg/m3 28.01 µg/m3 6.25 µg/m3 14.24 °C 63.36 % 1,010.07 mbar 1.78 m/s 206.37 Deg 1.59 µg/m3
2023-01-25 11:00 40.66 µg/m3 0.58 µg/m3 51.62 µg/m3 46.1 µg/m3 8.77 µg/m3 13.67 °C 74.05 % 1,010.69 mbar 1.14 m/s 325.45 Deg 15.08 µg/m3
2023-01-25 10:00 80.38 µg/m3 1.1 µg/m3 13.14 µg/m3 25.74 µg/m3 12.06 µg/m3 12.4 °C 80.12 % 1,010.88 mbar 1.09 m/s 311.32 Deg 65.18 µg/m3
2023-01-25 09:00 84.37 µg/m3 1.02 µg/m3 8.1 µg/m3 15.02 µg/m3 4.25 µg/m3 11.47 °C 84.21 % 1,010.53 mbar 0.87 m/s 314.2 Deg 64.77 µg/m3
2023-01-25 08:00 77.8 µg/m3 0.64 µg/m3 9.33 µg/m3 9.03 µg/m3 4.82 µg/m3 10.86 °C 86.34 % 1,010.30 mbar 1.2 m/s 308.1 Deg 29.37 µg/m3
2023-01-25 07:00 69.79 µg/m3 0.48 µg/m3 10.44 µg/m3 5.43 µg/m3 5.41 µg/m3 10.1 °C 87.26 % 1,010.29 mbar 1.63 m/s 305.98 Deg 23.58 µg/m3
2023-01-25 06:00 26.68 µg/m3 0.23 µg/m3 54.59 µg/m3 6.35 µg/m3 6.34 µg/m3 11.15 °C 81.96 % 1,010.26 mbar 1.73 m/s 303.52 Deg 3.2 µg/m3
2023-01-25 05:00 6.26 µg/m3 0.16 µg/m3 73.64 µg/m3 7.82 µg/m3 6.11 µg/m3 11.79 °C 82.03 % 1,010.49 mbar 1.87 m/s 292.82 Deg 0.03 µg/m3
2023-01-25 04:00 30.88 µg/m3 0.2 µg/m3 50.56 µg/m3 8.76 µg/m3 5.1 µg/m3 12.57 °C 82.19 % 1,010.52 mbar 1.71 m/s 204.43 Deg 0.1 µg/m3
2023-01-25 03:00 34.08 µg/m3 0.16 µg/m3 51.56 µg/m3 8.6 µg/m3 4.78 µg/m3 12.6 °C 86.06 % 1,010.92 mbar 1.42 m/s 185.78 Deg 0.08 µg/m3
2023-01-25 02:00 23.65 µg/m3 0.15 µg/m3 54.34 µg/m3 7.83 µg/m3 4.91 µg/m3 12.16 °C 90.74 % 1,011.21 mbar 1.16 m/s 179.28 Deg -0.04 µg/m3
2023-01-25 01:00 4.84 µg/m3 0.15 µg/m3 74.49 µg/m3 8.89 µg/m3 4.87 µg/m3 11.97 °C 89.43 % 1,011.67 mbar 1.65 m/s 172.85 Deg -0.15 µg/m3
2023-01-25 00:00 3.19 µg/m3 0.17 µg/m3 80.15 µg/m3 9.2 µg/m3 5.76 µg/m3 11.62 °C 89.31 % 1,012.21 mbar 1.85 m/s 159.72 Deg -0.16 µg/m3
2023-01-24 23:00 3.73 µg/m3 0.16 µg/m3 77.23 µg/m3 9.88 µg/m3 4.9 µg/m3 11.2 °C 89.76 % 1,012.69 mbar 1.68 m/s 131.45 Deg -0.13 µg/m3
2023-01-24 22:00 2.56 µg/m3 0.16 µg/m3 85.41 µg/m3 8.4 µg/m3 4.59 µg/m3 11.47 °C 85.12 % 1,012.78 mbar 2.15 m/s 126.83 Deg -0.14 µg/m3
2023-01-24 21:00 2.65 µg/m3 0.17 µg/m3 85.58 µg/m3 9.02 µg/m3 5.02 µg/m3 11.42 °C 84.56 % 1,012.54 mbar 3.15 m/s 135.68 Deg -0.19 µg/m3
2023-01-24 20:00 1.74 µg/m3 0.18 µg/m3 87.68 µg/m3 11.17 µg/m3 5.42 µg/m3 11.49 °C 80.8 % 1,012.86 mbar 3.79 m/s 120.08 Deg -0.16 µg/m3
2023-01-24 19:00 2.1 µg/m3 0.15 µg/m3 84.88 µg/m3 9.59 µg/m3 5.24 µg/m3 11.14 °C 82.33 % 1,013.47 mbar 2.72 m/s 117.08 Deg -0.17 µg/m3
2023-01-24 18:00 3.18 µg/m3 0.15 µg/m3 85.48 µg/m3 7.53 µg/m3 4.43 µg/m3 11.05 °C 86.92 % 1,013.69 mbar 4.39 m/s 135.97 Deg -0.16 µg/m3
2023-01-24 17:00 15.28 µg/m3 0.19 µg/m3 71.96 µg/m3 6.61 µg/m3 3.45 µg/m3 11.4 °C 86.47 % 1,013.92 mbar 3.16 m/s 172.03 Deg 0.15 µg/m3
2023-01-24 16:00 4.27 µg/m3 0.16 µg/m3 83.7 µg/m3 6.61 µg/m3 4.01 µg/m3 11.89 °C 73.01 % 1,014.11 mbar 3.34 m/s 155.15 Deg -0.14 µg/m3
2023-01-24 15:00 2.89 µg/m3 0.17 µg/m3 87.1 µg/m3 8.26 µg/m3 5.14 µg/m3 13.54 °C 60.33 % 1,013.50 mbar 5.1 m/s 131.17 Deg -0.13 µg/m3
2023-01-24 14:00 2.64 µg/m3 0.19 µg/m3 86.59 µg/m3 7.92 µg/m3 4.79 µg/m3 13.61 °C 61.23 % 1,013.25 mbar 6.1 m/s 119.63 Deg -0.11 µg/m3
2023-01-24 13:00 2.66 µg/m3 0.18 µg/m3 84.81 µg/m3 9.62 µg/m3 5.24 µg/m3 13.79 °C 61.36 % 1,013.81 mbar 6.17 m/s 117.82 Deg -0.03 µg/m3
2023-01-24 12:00 2.82 µg/m3 0.19 µg/m3 82.12 µg/m3 12.96 µg/m3 5 µg/m3 14.1 °C 63.27 % 1,014.75 mbar 6.37 m/s 126.57 Deg 0.45 µg/m3
2023-01-24 11:00 1.49 µg/m3 0.21 µg/m3 81.13 µg/m3 15.36 µg/m3 7.12 µg/m3 13.72 °C 61.03 % 1,015.77 mbar 5.49 m/s 120.28 Deg -0.1 µg/m3
2023-01-24 10:00 1.89 µg/m3 0.23 µg/m3 80.54 µg/m3 19.59 µg/m3 6.69 µg/m3 13.11 °C 67.77 % 1,016.05 mbar 5.13 m/s 123.58 Deg -0.08 µg/m3
2023-01-24 09:00 2.27 µg/m3 0.23 µg/m3 79.19 µg/m3 14.3 µg/m3 7.58 µg/m3 12.61 °C 65.31 % 1,015.98 mbar 4.56 m/s 126.52 Deg -0.1 µg/m3
2023-01-24 08:00 3.44 µg/m3 0.27 µg/m3 77.47 µg/m3 15.36 µg/m3 7 µg/m3 11.93 °C 61.36 % 1,015.78 mbar 4.02 m/s 128.08 Deg -0.11 µg/m3
2023-01-24 07:00 50.38 µg/m3 0.56 µg/m3 32.27 µg/m3 10.46 µg/m3 4.98 µg/m3 11.48 °C 67.32 % 1,015.60 mbar 1.26 m/s 165.88 Deg 23.56 µg/m3
2023-01-24 06:00 42.46 µg/m3 0.49 µg/m3 35.31 µg/m3 11.08 µg/m3 5.2 µg/m3 11.26 °C 64.38 % 1,015.66 mbar 0.63 m/s 285.17 Deg 15.75 µg/m3
2023-01-24 05:00 12.45 µg/m3 0.26 µg/m3 66.16 µg/m3 13.1 µg/m3 5.48 µg/m3 11.44 °C 63.37 % 1,015.62 mbar 0.87 m/s 324.31 Deg 0.68 µg/m3
2023-01-24 04:00 8.06 µg/m3 0.26 µg/m3 69.26 µg/m3 15.29 µg/m3 4.87 µg/m3 10.98 °C 66.82 % 1,015.92 mbar 1.23 m/s 312.71 Deg 0.01 µg/m3
2023-01-24 03:00 5.76 µg/m3 0.27 µg/m3 71.88 µg/m3 21.28 µg/m3 6.03 µg/m3 11.19 °C 67.55 % 1,016.18 mbar 1.41 m/s 275.3 Deg -0.11 µg/m3
2023-01-24 02:00 11.98 µg/m3 0.31 µg/m3 67.49 µg/m3 22.03 µg/m3 5.6 µg/m3 11.39 °C 62.01 % 1,016.06 mbar 1.19 m/s 311.37 Deg 0.02 µg/m3
2023-01-24 01:00 38.96 µg/m3 0.39 µg/m3 36.69 µg/m3 19.69 µg/m3 6.46 µg/m3 11.12 °C 56.7 % 1,015.82 mbar 1.31 m/s 319.97 Deg 2.12 µg/m3
2023-01-24 00:00 47.21 µg/m3 0.33 µg/m3 30.82 µg/m3 27.5 µg/m3 9.27 µg/m3 11.75 °C 53.19 % 1,015.87 mbar 1.01 m/s 322.52 Deg 2.61 µg/m3
2023-01-23 23:00 33.67 µg/m3 0.33 µg/m3 46.02 µg/m3 36.79 µg/m3 9.9 µg/m3 11.98 °C 51.79 % 1,015.87 mbar 1.21 m/s 272.67 Deg 3.86 µg/m3
2023-01-23 22:00 49.08 µg/m3 0.36 µg/m3 33.81 µg/m3 25 µg/m3 6.99 µg/m3 11.66 °C 53.56 % 1,015.67 mbar 1.18 m/s 287.63 Deg 5.92 µg/m3
2023-01-23 21:00 34.29 µg/m3 0.26 µg/m3 52.61 µg/m3 26.44 µg/m3 5.57 µg/m3 11.91 °C 52.47 % 1,015.11 mbar 1.33 m/s 266.35 Deg 1.85 µg/m3
2023-01-23 20:00 29.24 µg/m3 0.24 µg/m3 57.39 µg/m3 14.7 µg/m3 4.46 µg/m3 11.74 °C 55.7 % 1,014.63 mbar 1.39 m/s 263.02 Deg 1.2 µg/m3
2023-01-23 19:00 28.02 µg/m3 0.26 µg/m3 52.11 µg/m3 11.83 µg/m3 5.16 µg/m3 11.38 °C 69.59 % 1,014.22 mbar 1.39 m/s 222.33 Deg 1.81 µg/m3
2023-01-23 18:00 8.28 µg/m3 0.24 µg/m3 72.29 µg/m3 14.32 µg/m3 5.59 µg/m3 11.64 °C 70.72 % 1,013.73 mbar 2.13 m/s 208.73 Deg 0.02 µg/m3
2023-01-23 17:00 16.24 µg/m3 0.24 µg/m3 66.57 µg/m3 17.63 µg/m3 4.96 µg/m3 13.07 °C 53.93 % 1,013.26 mbar 1.78 m/s 228.47 Deg 1.28 µg/m3
2023-01-23 16:00 10.46 µg/m3 0.25 µg/m3 75.76 µg/m3 12.41 µg/m3 4.6 µg/m3 13.78 °C 51.05 % 1,012.90 mbar 2.25 m/s 231.17 Deg 1.52 µg/m3
2023-01-23 15:00 10.75 µg/m3 0.24 µg/m3 73.8 µg/m3 12.82 µg/m3 5.57 µg/m3 14.16 °C 51.73 % 1,012.33 mbar 2.7 m/s 247.28 Deg 2.23 µg/m3
2023-01-23 14:00 7.6 µg/m3 0.24 µg/m3 75.75 µg/m3 15.58 µg/m3 6.18 µg/m3 14.13 °C 53.49 % 1,012.16 mbar 2.53 m/s 261.72 Deg 1.42 µg/m3
2023-01-23 13:00 6.79 µg/m3 0.24 µg/m3 76.64 µg/m3 20.23 µg/m3 7.45 µg/m3 13.98 °C 51.15 % 1,012.20 mbar 2.72 m/s 261.22 Deg 1.26 µg/m3
2023-01-23 12:00 8.28 µg/m3 0.29 µg/m3 72.85 µg/m3 18.48 µg/m3 5.78 µg/m3 13.79 °C 53.75 % 1,012.41 mbar 2.7 m/s 247.67 Deg 1.76 µg/m3
2023-01-23 11:00 15.42 µg/m3 0.36 µg/m3 66.03 µg/m3 17.44 µg/m3 5.72 µg/m3 13.34 °C 55.17 % 1,012.56 mbar 2.14 m/s 264.82 Deg 3.42 µg/m3
2023-01-23 10:00 32.28 µg/m3 0.42 µg/m3 47.69 µg/m3 19.41 µg/m3 5.92 µg/m3 12.26 °C 59.15 % 1,012.38 mbar 1.39 m/s 275.13 Deg 8.2 µg/m3
2023-01-23 09:00 62.32 µg/m3 0.63 µg/m3 24.72 µg/m3 22.52 µg/m3 6.2 µg/m3 10.88 °C 62.18 % 1,011.79 mbar 1.56 m/s 283.27 Deg 26.68 µg/m3
2023-01-23 08:00 78.03 µg/m3 0.81 µg/m3 7.64 µg/m3 12.37 µg/m3 4.3 µg/m3 9.58 °C 72.82 % 1,011.21 mbar 1.35 m/s 290.37 Deg 45.65 µg/m3
2023-01-23 07:00 65.33 µg/m3 0.55 µg/m3 15.35 µg/m3 8.2 µg/m3 5.08 µg/m3 9.15 °C 78.23 % 1,010.80 mbar 1.12 m/s 317.1 Deg 24.31 µg/m3
2023-01-23 06:00 38.98 µg/m3 0.32 µg/m3 36.49 µg/m3 6.9 µg/m3 4.74 µg/m3 9.22 °C 76.63 % 1,010.40 mbar 0.87 m/s 324.94 Deg 8.6 µg/m3
2023-01-23 05:00 5.09 µg/m3 0.21 µg/m3 69.98 µg/m3 7.17 µg/m3 5.83 µg/m3 9.62 °C 65.78 % 1,009.96 mbar 2.21 m/s 298.9 Deg 0.01 µg/m3
2023-01-23 04:00 3.48 µg/m3 0.22 µg/m3 71.48 µg/m3 8.54 µg/m3 5.27 µg/m3 9.48 °C 68.88 % 1,009.78 mbar 2.17 m/s 287.3 Deg -0.09 µg/m3
2023-01-23 03:00 3.03 µg/m3 0.21 µg/m3 71.7 µg/m3 11.07 µg/m3 5.27 µg/m3 9.35 °C 70.02 % 1,009.82 mbar 2.04 m/s 286.65 Deg -0.11 µg/m3
2023-01-23 02:00 2.79 µg/m3 0.18 µg/m3 72.66 µg/m3 14.21 µg/m3 6.63 µg/m3 9.29 °C 73.45 % 1,009.52 mbar 1.93 m/s 284.47 Deg -0.13 µg/m3
2023-01-23 01:00 3.4 µg/m3 0.2 µg/m3 72.36 µg/m3 13.07 µg/m3 5.78 µg/m3 9.02 °C 71.7 % 1,009.29 mbar 2.65 m/s 292.7 Deg -0.13 µg/m3
2023-01-23 00:00 7.01 µg/m3 0.22 µg/m3 67 µg/m3 13.96 µg/m3 7.06 µg/m3 8.71 °C 77.68 % 1,009.25 mbar 2.07 m/s 291.05 Deg -0.02 µg/m3
2023-01-22 23:00 9.74 µg/m3 0.22 µg/m3 67.92 µg/m3 16.43 µg/m3 7.44 µg/m3 8.69 °C 79.38 % 1,009.16 mbar 1.73 m/s 335.72 Deg 0.1 µg/m3
2023-01-22 22:00 10.16 µg/m3 0.22 µg/m3 68.02 µg/m3 17.73 µg/m3 11.09 µg/m3 9.45 °C 69.6 % 1,008.52 mbar 2.47 m/s 314.62 Deg 0.21 µg/m3
2023-01-22 21:00 24.45 µg/m3 0.23 µg/m3 49.17 µg/m3 20.81 µg/m3 5.03 µg/m3 8.78 °C 78.34 % 1,008.08 mbar 1.32 m/s 318.88 Deg 1.65 µg/m3
2023-01-22 20:00 20.89 µg/m3 0.2 µg/m3 57.31 µg/m3 12.03 µg/m3 3.71 µg/m3 8.37 °C 81.54 % 1,007.79 mbar 1.43 m/s 305.6 Deg 1.25 µg/m3
2023-01-22 19:00 23.46 µg/m3 0.22 µg/m3 55.85 µg/m3 9.69 µg/m3 4.53 µg/m3 8.86 °C 78.51 % 1,007.12 mbar 1.96 m/s 297.5 Deg 1.56 µg/m3
2023-01-22 18:00 15.66 µg/m3 0.19 µg/m3 62.22 µg/m3 9.87 µg/m3 4.92 µg/m3 9.34 °C 80.87 % 1,006.45 mbar 2.4 m/s 308.38 Deg 1.2 µg/m3
2023-01-22 17:00 20.99 µg/m3 0.16 µg/m3 52.99 µg/m3 11.24 µg/m3 6.15 µg/m3 10.2 °C 83.41 % 1,005.92 mbar 0.98 m/s 302.56 Deg 1.47 µg/m3
2023-01-22 16:00 10.21 µg/m3 0.16 µg/m3 67.79 µg/m3 13.29 µg/m3 5.97 µg/m3 9.79 °C 89.26 % 1,005.86 mbar 1.87 m/s 327.05 Deg 1.36 µg/m3
2023-01-22 15:00 10.02 µg/m3 0.16 µg/m3 64.42 µg/m3 10.84 µg/m3 4.59 µg/m3 9.6 °C 95 % 1,005.60 mbar 2.38 m/s 325.2 Deg 0.99 µg/m3
2023-01-22 14:00 6.9 µg/m3 0.2 µg/m3 69.41 µg/m3 8.64 µg/m3 5.22 µg/m3 10.43 °C 90.56 % 1,005.05 mbar 2.87 m/s 328.22 Deg 1.06 µg/m3
2023-01-22 13:00 10.71 µg/m3 0.2 µg/m3 64.46 µg/m3 10.65 µg/m3 5.38 µg/m3 10.99 °C 93.53 % 1,005.19 mbar 2.87 m/s 318.42 Deg 1.75 µg/m3
2023-01-22 12:00 10.64 µg/m3 0.2 µg/m3 63.57 µg/m3 13.41 µg/m3 6.61 µg/m3 11.84 °C 88.15 % 1,005.03 mbar 2.23 m/s 320.48 Deg 2.48 µg/m3
2023-01-22 11:00 13.56 µg/m3 0.21 µg/m3 59.79 µg/m3 18.55 µg/m3 6.99 µg/m3 11.43 °C 91.44 % 1,005.25 mbar 2.65 m/s 295.17 Deg 2.13 µg/m3
2023-01-22 10:00 6.87 µg/m3 0.18 µg/m3 66.87 µg/m3 29.02 µg/m3 8.23 µg/m3 12.46 °C 86.04 % 1,005.29 mbar 2.57 m/s 200.98 Deg 0.47 µg/m3
2023-01-22 09:00 30.09 µg/m3 0.16 µg/m3 45.87 µg/m3 27.4 µg/m3 6.09 µg/m3 11.12 °C 87.03 % 1,005.69 mbar 2.61 m/s 182.07 Deg 2.02 µg/m3
2023-01-22 08:00 5.68 µg/m3 0.17 µg/m3 70.89 µg/m3 22.34 µg/m3 5.88 µg/m3 10.71 °C 91.15 % 1,005.91 mbar 3.55 m/s 225.42 Deg 0.08 µg/m3
2023-01-22 07:00 3.56 µg/m3 0.2 µg/m3 75.06 µg/m3 12.93 µg/m3 4.95 µg/m3 12.05 °C 72.31 % 1,005.42 mbar 3.81 m/s 258.78 Deg -0.06 µg/m3
2023-01-22 06:00 3.51 µg/m3 0.18 µg/m3 72.59 µg/m3 8.18 µg/m3 6.08 µg/m3 12.4 °C 56.26 % 1,004.94 mbar 2.41 m/s 220.43 Deg -0.14 µg/m3
2023-01-22 05:00 2.69 µg/m3 0.19 µg/m3 73.4 µg/m3 10.21 µg/m3 7.14 µg/m3 12.14 °C 55.6 % 1,005.29 mbar 1.89 m/s 230.02 Deg -0.16 µg/m3
2023-01-22 04:00 2.34 µg/m3 0.22 µg/m3 73.95 µg/m3 15.68 µg/m3 7.61 µg/m3 11.97 °C 53.27 % 1,005.91 mbar 1.67 m/s 244.02 Deg -0.17 µg/m3
2023-01-22 03:00 3.55 µg/m3 0.16 µg/m3 72.73 µg/m3 21.73 µg/m3 8.98 µg/m3 12.02 °C 55.6 % 1,006.59 mbar 1.77 m/s 237.93 Deg -0.09 µg/m3
2023-01-22 02:00 2.91 µg/m3 0.14 µg/m3 74.25 µg/m3 24.76 µg/m3 12.26 µg/m3 12.02 °C 57.85 % 1,007.00 mbar 2.18 m/s 231.67 Deg -0.1 µg/m3
2023-01-22 01:00 3.1 µg/m3 0.18 µg/m3 72.81 µg/m3 22.96 µg/m3 6.48 µg/m3 11.79 °C 58.49 % 1,007.06 mbar 2.51 m/s 227.87 Deg -0.1 µg/m3
2023-01-22 00:00 2.97 µg/m3 0.19 µg/m3 72.11 µg/m3 30.72 µg/m3 5.47 µg/m3 11.61 °C 57.41 % 1,007.41 mbar 2.45 m/s 222.05 Deg -0.1 µg/m3
2023-01-21 23:00 5.67 µg/m3 0.19 µg/m3 70.09 µg/m3 28.48 µg/m3 6.87 µg/m3 11.45 °C 56.7 % 1,007.70 mbar 2.15 m/s 229.72 Deg 0.09 µg/m3
2023-01-21 22:00 7.71 µg/m3 0.17 µg/m3 68.71 µg/m3 25.63 µg/m3 8.99 µg/m3 11.36 °C 59.84 % 1,007.71 mbar 1.95 m/s 246.65 Deg 0.1 µg/m3
2023-01-21 21:00 11.86 µg/m3 0.2 µg/m3 64 µg/m3 19.15 µg/m3 9.55 µg/m3 11.36 °C 56.89 % 1,007.72 mbar 1.82 m/s 252.78 Deg 0.21 µg/m3
2023-01-21 20:00 11.34 µg/m3 0.18 µg/m3 65.33 µg/m3 23.79 µg/m3 7.6 µg/m3 11.7 °C 58.85 % 1,007.48 mbar 2.19 m/s 260.35 Deg 0.33 µg/m3
2023-01-21 19:00 13.73 µg/m3 0.16 µg/m3 64.65 µg/m3 31.9 µg/m3 6.17 µg/m3 12.12 °C 60.18 % 1,007.09 mbar 2.77 m/s 264.1 Deg 0.49 µg/m3
2023-01-21 18:00 21.73 µg/m3 0.23 µg/m3 55.62 µg/m3 16.76 µg/m3 5.66 µg/m3 12.21 °C 58.3 % 1,006.70 mbar 1.92 m/s 287 Deg 1.71 µg/m3
2023-01-21 17:00 12.3 µg/m3 0.19 µg/m3 66.08 µg/m3 15.95 µg/m3 4.77 µg/m3 12.65 °C 52.56 % 1,006.35 mbar 2.68 m/s 292.18 Deg 1.1 µg/m3
2023-01-21 16:00 8.13 µg/m3 0.18 µg/m3 71.39 µg/m3 22.28 µg/m3 5.31 µg/m3 13.2 °C 53.64 % 1,005.92 mbar 3.69 m/s 289.42 Deg 1.14 µg/m3
2023-01-21 15:00 6.98 µg/m3 0.18 µg/m3 74.12 µg/m3 16.81 µg/m3 6.59 µg/m3 13.31 °C 56.51 % 1,005.59 mbar 4.65 m/s 284.15 Deg 1.16 µg/m3
2023-01-21 14:00 7.3 µg/m3 0.19 µg/m3 73.28 µg/m3 15.38 µg/m3 7.73 µg/m3 13.18 °C 53.61 % 1,005.43 mbar 5.46 m/s 293.33 Deg 1.79 µg/m3
2023-01-21 13:00 9.15 µg/m3 0.2 µg/m3 70.22 µg/m3 23.59 µg/m3 10.14 µg/m3 12.89 °C 57.34 % 1,005.62 mbar 4.94 m/s 299.82 Deg 2.56 µg/m3
2023-01-21 12:00 10.72 µg/m3 0.18 µg/m3 66.72 µg/m3 21.34 µg/m3 11.31 µg/m3 12.28 °C 63.65 % 1,006.35 mbar 5 m/s 287.6 Deg 2.66 µg/m3
2023-01-21 11:00 11.31 µg/m3 0.16 µg/m3 63.89 µg/m3 26.98 µg/m3 7.41 µg/m3 12.21 °C 63.02 % 1,006.54 mbar 4.83 m/s 292.67 Deg 2.99 µg/m3
2023-01-21 10:00 16.22 µg/m3 0.23 µg/m3 58.22 µg/m3 28.48 µg/m3 5.52 µg/m3 11.4 °C 70.68 % 1,006.19 mbar 3.12 m/s 307.27 Deg 3.27 µg/m3
2023-01-21 09:00 17.38 µg/m3 0.21 µg/m3 56.89 µg/m3 15.09 µg/m3 5.52 µg/m3 10.73 °C 72.5 % 1,005.64 mbar 3.51 m/s 309.35 Deg 3.99 µg/m3
2023-01-21 08:00 14.89 µg/m3 0.16 µg/m3 59.48 µg/m3 15.11 µg/m3 5.22 µg/m3 10.64 °C 69.34 % 1,005.21 mbar 3.48 m/s 301.38 Deg 1.74 µg/m3
2023-01-21 07:00 9.31 µg/m3 0.15 µg/m3 65.84 µg/m3 15.36 µg/m3 6.08 µg/m3 10.83 °C 69 % 1,004.72 mbar 3.98 m/s 307.15 Deg 1.03 µg/m3
2023-01-21 06:00 4.75 µg/m3 0.14 µg/m3 72.86 µg/m3 16.23 µg/m3 6.83 µg/m3 11.07 °C 67.42 % 1,004.30 mbar 4.31 m/s 294.97 Deg 0.34 µg/m3
2023-01-21 05:00 2.55 µg/m3 0.14 µg/m3 75.64 µg/m3 10.53 µg/m3 7.71 µg/m3 11.22 °C 61.74 % 1,004.04 mbar 4.58 m/s 295.9 Deg -0.1 µg/m3
2023-01-21 04:00 1.55 µg/m3 0.22 µg/m3 75.96 µg/m3 11.64 µg/m3 6.88 µg/m3 11.32 °C 64.59 % 1,004.34 mbar 4.87 m/s 297.43 Deg -0.14 µg/m3
2023-01-21 03:00 1.59 µg/m3 0.11 µg/m3 74.69 µg/m3 11.81 µg/m3 9.37 µg/m3 11.59 °C 63.54 % 1,004.48 mbar 5.03 m/s 293.88 Deg -0.13 µg/m3
2023-01-21 02:00 1.74 µg/m3 0.13 µg/m3 75.66 µg/m3 14.96 µg/m3 7.28 µg/m3 11.71 °C 62.15 % 1,004.31 mbar 4.43 m/s 289.93 Deg -0.13 µg/m3
2023-01-21 01:00 2.23 µg/m3 0.14 µg/m3 75.26 µg/m3 20.2 µg/m3 2.88 µg/m3 11.79 °C 60.63 % 1,004.22 mbar 4.78 m/s 299.62 Deg -0.08 µg/m3
2023-01-21 00:00 2.39 µg/m3 0.1 µg/m3 76.81 µg/m3 31.16 µg/m3 2.88 µg/m3 11.9 °C 61.66 % 1,004.29 mbar 5.56 m/s 298.1 Deg -0.01 µg/m3
2023-01-20 23:00 4.76 µg/m3 0.12 µg/m3 73.63 µg/m3 45.19 µg/m3 2.88 µg/m3 11.74 °C 78.49 % 1,004.30 mbar 4.26 m/s 302.53 Deg 0.25 µg/m3
2023-01-20 22:00 4.75 µg/m3 0.13 µg/m3 72.79 µg/m3 46.41 µg/m3 2.88 µg/m3 11.82 °C 80.4 % 1,004.10 mbar 4.52 m/s 307.92 Deg 0.4 µg/m3
2023-01-20 21:00 6.22 µg/m3 0.13 µg/m3 71.18 µg/m3 59.03 µg/m3 2.88 µg/m3 13.47 °C 65.96 % 1,003.29 mbar 4.68 m/s 295.27 Deg 0.35 µg/m3
2023-01-20 20:00 6.5 µg/m3 0.15 µg/m3 72.37 µg/m3 43.87 µg/m3 2.88 µg/m3 13.23 °C 75.74 % 1,002.93 mbar 5.6 m/s 273.6 Deg 0.51 µg/m3
2023-01-20 19:00 6.31 µg/m3 0.14 µg/m3 76.13 µg/m3 37.89 µg/m3 2.88 µg/m3 14.13 °C 68 % 1,002.64 mbar 4.93 m/s 254.83 Deg 0.43 µg/m3
2023-01-20 18:00 5.77 µg/m3 0.14 µg/m3 79.38 µg/m3 34.31 µg/m3 2.88 µg/m3 13.84 °C 66.52 % 1,002.66 mbar 5.79 m/s 255.4 Deg 0.36 µg/m3
2023-01-20 17:00 6.67 µg/m3 0.13 µg/m3 81.31 µg/m3 25.15 µg/m3 2.88 µg/m3 13.73 °C 62.76 % 1,002.84 mbar 6.75 m/s 255.85 Deg 0.74 µg/m3
2023-01-20 16:00 6.77 µg/m3 0.13 µg/m3 79.24 µg/m3 35.32 µg/m3 2.88 µg/m3 13.95 °C 58.51 % 1,002.80 mbar 6.61 m/s 254.22 Deg 1.28 µg/m3
2023-01-20 15:00 6.41 µg/m3 0.15 µg/m3 76.59 µg/m3 23.36 µg/m3 2.88 µg/m3 14.16 °C 57.57 % 1,002.96 mbar 6.46 m/s 248.42 Deg 1.41 µg/m3
2023-01-20 14:00 5.22 µg/m3 0.15 µg/m3 77.01 µg/m3 10.06 µg/m3 2.88 µg/m3 14.53 °C 54.19 % 1,003.53 mbar 6.91 m/s 240.63 Deg 1.2 µg/m3
2023-01-20 13:00 5.28 µg/m3 0.14 µg/m3 74.94 µg/m3 9.85 µg/m3 2.88 µg/m3 14.58 °C 54.77 % 1,004.45 mbar 5.56 m/s 233.05 Deg 1.02 µg/m3
2023-01-20 12:00 5.71 µg/m3 0.18 µg/m3 70.95 µg/m3 11.15 µg/m3 3.79 µg/m3 14.26 °C 56.41 % 1,005.81 mbar 4.93 m/s 239.52 Deg 1.76 µg/m3
2023-01-20 11:00 7.64 µg/m3 0.2 µg/m3 68 µg/m3 15.07 µg/m3 7.14 µg/m3 13.48 °C 59.53 % 1,006.72 mbar 4.61 m/s 236.13 Deg 1.88 µg/m3
2023-01-20 10:00 10.15 µg/m3 0.22 µg/m3 63.31 µg/m3 11.18 µg/m3 6.96 µg/m3 12.85 °C 63.71 % 1,006.99 mbar 3.73 m/s 256.3 Deg 1.83 µg/m3
2023-01-20 09:00 32.26 µg/m3 0.3 µg/m3 43.94 µg/m3 8.4 µg/m3 6.28 µg/m3 11.06 °C 77.01 % 1,007.07 mbar 2.35 m/s 268.23 Deg 6.97 µg/m3
2023-01-20 08:00 63.04 µg/m3 0.5 µg/m3 15.75 µg/m3 9.71 µg/m3 5.8 µg/m3 9.28 °C 88.07 % 1,007.24 mbar 1.28 m/s 312.4 Deg 23.72 µg/m3
2023-01-20 07:00 39.12 µg/m3 0.2 µg/m3 37.63 µg/m3 13.58 µg/m3 4.45 µg/m3 9.21 °C 82.38 % 1,007.15 mbar 1.74 m/s 341.73 Deg 6.75 µg/m3
2023-01-20 06:00 13.01 µg/m3 0.18 µg/m3 60.81 µg/m3 19.66 µg/m3 5 µg/m3 9.24 °C 80.49 % 1,006.84 mbar 2.23 m/s 306.4 Deg 1.18 µg/m3
2023-01-20 05:00 6 µg/m3 0.12 µg/m3 67.01 µg/m3 11.7 µg/m3 5.41 µg/m3 9.22 °C 86.62 % 1,006.64 mbar 1.82 m/s 322.57 Deg 0.18 µg/m3
2023-01-20 04:00 2.06 µg/m3 0.15 µg/m3 70.94 µg/m3 9.38 µg/m3 5.15 µg/m3 9.26 °C 86.43 % 1,006.68 mbar 2.73 m/s 313.47 Deg -0.13 µg/m3
2023-01-20 03:00 2.56 µg/m3 0.15 µg/m3 72.19 µg/m3 9.59 µg/m3 4.05 µg/m3 10.18 °C 76.21 % 1,006.62 mbar 2.85 m/s 327.68 Deg -0.16 µg/m3
2023-01-20 02:00 1.68 µg/m3 0.14 µg/m3 73.2 µg/m3 10.65 µg/m3 4.22 µg/m3 10.87 °C 64.24 % 1,006.48 mbar 4.47 m/s 301.63 Deg -0.13 µg/m3
2023-01-20 01:00 1.62 µg/m3 0.1 µg/m3 72.62 µg/m3 10.11 µg/m3 4.78 µg/m3 10.73 °C 64.6 % 1,006.31 mbar 3.77 m/s 302.58 Deg -0.1 µg/m3
2023-01-20 00:00 2.5 µg/m3 0.12 µg/m3 71.7 µg/m3 9.96 µg/m3 5.74 µg/m3 10.8 °C 67.52 % 1,006.58 mbar 3.98 m/s 295.33 Deg -0.06 µg/m3
2023-01-19 23:00 5.4 µg/m3 0.15 µg/m3 68.94 µg/m3 10.78 µg/m3 5.69 µg/m3 9.77 °C 75.21 % 1,006.56 mbar 2.96 m/s 301.05 Deg 0.18 µg/m3
2023-01-19 22:00 5.45 µg/m3 0.11 µg/m3 72.37 µg/m3 14.58 µg/m3 5.51 µg/m3 10.03 °C 74.31 % 1,006.64 mbar 3.67 m/s 309.65 Deg 0.25 µg/m3
2023-01-19 21:00 8.83 µg/m3 0.15 µg/m3 69.54 µg/m3 22.13 µg/m3 6.64 µg/m3 10.87 °C 68.27 % 1,005.59 mbar 2.68 m/s 303.48 Deg 0.41 µg/m3
2023-01-19 20:00 21.13 µg/m3 0.18 µg/m3 57.91 µg/m3 14.29 µg/m3 6.48 µg/m3 10.23 °C 78.94 % 1,005.10 mbar 2.22 m/s 314.02 Deg 2.55 µg/m3
2023-01-19 19:00 19.37 µg/m3 0.16 µg/m3 60.78 µg/m3 10.33 µg/m3 5.52 µg/m3 9.39 °C 85.57 % 1,004.68 mbar 2.56 m/s 318.88 Deg 1.66 µg/m3
2023-01-19 18:00 19.1 µg/m3 0.15 µg/m3 63.81 µg/m3 8.74 µg/m3 7 µg/m3 10.49 °C 79.14 % 1,003.78 mbar 3.82 m/s 321.63 Deg 1.95 µg/m3
2023-01-19 17:00 30.25 µg/m3 0.17 µg/m3 54.71 µg/m3 12.43 µg/m3 6.71 µg/m3 9.84 °C 85.97 % 1,003.31 mbar 1.93 m/s 293.67 Deg 2.77 µg/m3
2023-01-19 16:00 24.87 µg/m3 0.14 µg/m3 62.63 µg/m3 14.9 µg/m3 7.73 µg/m3 8.49 °C 91.29 % 1,003.65 mbar 2.52 m/s 263.2 Deg 2.27 µg/m3
2023-01-19 15:00 18.63 µg/m3 0.17 µg/m3 65.21 µg/m3 18.82 µg/m3 8.93 µg/m3 9.45 °C 93.44 % 1,003.51 mbar 2.96 m/s 271 Deg 2.09 µg/m3
2023-01-19 14:00 33.33 µg/m3 0.21 µg/m3 48.68 µg/m3 29.01 µg/m3 6.43 µg/m3 10.99 °C 87.26 % 1,002.99 mbar 1.64 m/s 308.18 Deg 4.15 µg/m3
2023-01-19 13:00 30.52 µg/m3 0.2 µg/m3 53.31 µg/m3 31.31 µg/m3 7.33 µg/m3 11.27 °C 88.26 % 1,003.32 mbar 1.83 m/s 286.97 Deg 4.62 µg/m3
2023-01-19 12:00 30.33 µg/m3 0.2 µg/m3 53.64 µg/m3 21.36 µg/m3 5.35 µg/m3 11.55 °C 85.77 % 1,004.12 mbar 2.26 m/s 276.22 Deg 3.81 µg/m3
2023-01-19 11:00 28.62 µg/m3 0.21 µg/m3 58.3 µg/m3 25.58 µg/m3 6.49 µg/m3 13.76 °C 62.15 % 1,003.83 mbar 2.44 m/s 288.62 Deg 3.78 µg/m3
2023-01-19 10:00 29.86 µg/m3 0.19 µg/m3 56.42 µg/m3 46.05 µg/m3 6.74 µg/m3 13.95 °C 59.58 % 1,003.61 mbar 2.15 m/s 280.45 Deg 4.4 µg/m3
2023-01-19 09:00 53.37 µg/m3 0.32 µg/m3 35.48 µg/m3 39.09 µg/m3 6.51 µg/m3 13.5 °C 60.13 % 1,003.21 mbar 1.71 m/s 281.32 Deg 16.11 µg/m3
2023-01-19 08:00 63.69 µg/m3 0.31 µg/m3 22.33 µg/m3 35.54 µg/m3 8.86 µg/m3 12.35 °C 67.17 % 1,003.08 mbar 1.64 m/s 291.85 Deg 13.56 µg/m3
2023-01-19 07:00 67.74 µg/m3 0.37 µg/m3 14.43 µg/m3 26.53 µg/m3 5.89 µg/m3 11.98 °C 74.32 % 1,002.56 mbar 1.12 m/s 302.02 Deg 21.59 µg/m3
2023-01-19 06:00 24.51 µg/m3 0.09 µg/m3 51.03 µg/m3 31.57 µg/m3 8.2 µg/m3 12.11 °C 76.5 % 1,002.07 mbar 1.1 m/s 319.85 Deg 1.3 µg/m3
2023-01-19 05:00 8.51 µg/m3 0.07 µg/m3 65.13 µg/m3 51.79 µg/m3 11.56 µg/m3 12.58 °C 78.08 % 1,001.56 mbar 1.1 m/s 304.88 Deg 0.04 µg/m3
2023-01-19 04:00 5.83 µg/m3 0.09 µg/m3 65.72 µg/m3 79.81 µg/m3 16.88 µg/m3 13.12 °C 82.67 % 1,001.68 mbar 1.34 m/s 304.3 Deg -0.03 µg/m3
2023-01-19 03:00 4.13 µg/m3 0.07 µg/m3 72.67 µg/m3 128.97 µg/m3 26.55 µg/m3 13.82 °C 81.76 % 1,001.47 mbar 1.76 m/s 309.23 Deg -0.12 µg/m3
2023-01-19 02:00 3.7 µg/m3 0.05 µg/m3 75.09 µg/m3 220.31 µg/m3 46.14 µg/m3 14.37 °C 85.98 % 1,001.21 mbar 2.52 m/s 325.72 Deg -0.08 µg/m3
2023-01-19 01:00 2.93 µg/m3 0.04 µg/m3 72.58 µg/m3 301.62 µg/m3 61 µg/m3 15.99 °C 77.77 % 1,000.44 mbar 2.51 m/s 318.63 Deg -0.1 µg/m3
2023-01-19 00:00 2.06 µg/m3 0.01 µg/m3 70.87 µg/m3 275.47 µg/m3 42.3 µg/m3 17.08 °C 71.96 % 999.99 mbar 3.69 m/s 233.72 Deg -0.07 µg/m3
2023-01-18 23:00 1.47 µg/m3 0.05 µg/m3 71.06 µg/m3 203.17 µg/m3 39.03 µg/m3 16.9 °C 73.84 % 999.89 mbar 4.96 m/s 216.18 Deg -0.17 µg/m3
2023-01-18 22:00 1.55 µg/m3 0.03 µg/m3 71.13 µg/m3 145.76 µg/m3 33.4 µg/m3 16.64 °C 74.59 % 999.97 mbar 4.34 m/s 219.32 Deg -0.11 µg/m3
2023-01-18 21:00 2.19 µg/m3 0.02 µg/m3 71.94 µg/m3 119.85 µg/m3 20.86 µg/m3 16.46 °C 77.41 % 1,000.06 mbar 4.63 m/s 218.72 Deg -0.12 µg/m3
2023-01-18 20:00 2.02 µg/m3 0.05 µg/m3 73.96 µg/m3 123.67 µg/m3 26.57 µg/m3 16.44 °C 83.68 % 999.74 mbar 5 m/s 219.87 Deg -0.06 µg/m3
2023-01-18 19:00 2.61 µg/m3 0.03 µg/m3 73.65 µg/m3 140.15 µg/m3 23.09 µg/m3 16.6 °C 84.72 % 999.37 mbar 5.52 m/s 214.12 Deg -0.03 µg/m3
2023-01-18 18:00 3.46 µg/m3 0.03 µg/m3 72.27 µg/m3 150.81 µg/m3 39.85 µg/m3 16.72 °C 83.38 % 999.06 mbar 5 m/s 219.78 Deg -0 µg/m3
2023-01-18 17:00 3.61 µg/m3 0.06 µg/m3 70.82 µg/m3 172.39 µg/m3 30.53 µg/m3 17.1 °C 79.9 % 998.79 mbar 5.61 m/s 219.32 Deg 0.22 µg/m3
2023-01-18 16:00 3.76 µg/m3 0.07 µg/m3 70.23 µg/m3 180.44 µg/m3 32.97 µg/m3 17.8 °C 76.67 % 998.71 mbar 5.52 m/s 219.97 Deg 0.53 µg/m3
2023-01-18 15:00 4.13 µg/m3 0.06 µg/m3 70.25 µg/m3 194.17 µg/m3 43.65 µg/m3 18.3 °C 73.88 % 998.91 mbar 6.15 m/s 230.83 Deg 0.87 µg/m3
2023-01-18 14:00 5.24 µg/m3 0.07 µg/m3 68.36 µg/m3 221.68 µg/m3 42.29 µg/m3 18.53 °C 73.03 % 999.10 mbar 5.16 m/s 230.22 Deg 1.57 µg/m3
2023-01-18 13:00 5.35 µg/m3 0.09 µg/m3 68.7 µg/m3 237.87 µg/m3 48.14 µg/m3 18.67 °C 71.49 % 999.51 mbar 4.93 m/s 237.73 Deg 1.5 µg/m3
2023-01-18 12:00 6.39 µg/m3 0.1 µg/m3 68.06 µg/m3 242.87 µg/m3 42.14 µg/m3 18.6 °C 69.92 % 999.98 mbar 4.61 m/s 244.28 Deg 1.7 µg/m3
2023-01-18 11:00 7.88 µg/m3 0.1 µg/m3 67.51 µg/m3 242.82 µg/m3 45.72 µg/m3 18.22 °C 71.93 % 1,000.32 mbar 4.2 m/s 243 Deg 2.15 µg/m3
2023-01-18 10:00 7.91 µg/m3 0.11 µg/m3 66.6 µg/m3 208.33 µg/m3 21.18 µg/m3 17.62 °C 75.39 % 1,000.25 mbar 3.9 m/s 248.3 Deg 1.53 µg/m3
2023-01-18 09:00 15.22 µg/m3 0.1 µg/m3 60.11 µg/m3 156.56 µg/m3 25.71 µg/m3 16.85 °C 73.99 % 999.87 mbar 3.28 m/s 260.95 Deg 2.33 µg/m3
2023-01-18 08:00 14.42 µg/m3 0.09 µg/m3 59.26 µg/m3 120.62 µg/m3 17.86 µg/m3 16.08 °C 76.52 % 999.37 mbar 4.18 m/s 255.23 Deg 1.73 µg/m3
2023-01-18 07:00 15.59 µg/m3 0.08 µg/m3 59.3 µg/m3 137.71 µg/m3 19.56 µg/m3 15.87 °C 74.49 % 998.86 mbar 4.42 m/s 255.38 Deg 1.13 µg/m3
2023-01-18 06:00 5.71 µg/m3 0.07 µg/m3 69.99 µg/m3 160.51 µg/m3 20.99 µg/m3 15.84 °C 72.65 % 998.61 mbar 4.36 m/s 261.88 Deg 0.3 µg/m3
2023-01-18 05:00 2.57 µg/m3 0.08 µg/m3 74.84 µg/m3 193.91 µg/m3 30.38 µg/m3 15.96 °C 71.47 % 998.85 mbar 3.39 m/s 252.87 Deg -0.09 µg/m3
2023-01-18 04:00 2.06 µg/m3 0.09 µg/m3 75.55 µg/m3 250.64 µg/m3 38.42 µg/m3 15.99 °C 68.96 % 999.22 mbar 3.12 m/s 254.75 Deg -0.16 µg/m3
2023-01-18 03:00 3.33 µg/m3 0.06 µg/m3 75.4 µg/m3 309.18 µg/m3 56.1 µg/m3 16.13 °C 67.03 % 999.58 mbar 3.49 m/s 258.07 Deg -0.19 µg/m3
2023-01-18 02:00 1.79 µg/m3 0.05 µg/m3 76.44 µg/m3 326.34 µg/m3 49.47 µg/m3 16.3 °C 64.99 % 999.74 mbar 3.62 m/s 251.42 Deg -0.18 µg/m3
2023-01-18 01:00 2.68 µg/m3 0.09 µg/m3 75.2 µg/m3 332.55 µg/m3 56.3 µg/m3 16.57 °C 64.87 % 1,000.06 mbar 4.51 m/s 256.33 Deg -0.16 µg/m3
2023-01-18 00:00 2.86 µg/m3 0.04 µg/m3 73.05 µg/m3 325.82 µg/m3 49.33 µg/m3 16.8 °C 64.21 % 1,000.34 mbar 4.32 m/s 258.68 Deg -0.15 µg/m3
2023-01-17 23:00 3.08 µg/m3 0.1 µg/m3 71.99 µg/m3 257.01 µg/m3 44.03 µg/m3 16.99 °C 62.28 % 1,000.34 mbar 4.62 m/s 261.43 Deg -0.09 µg/m3
2023-01-17 22:00 2.87 µg/m3 0.09 µg/m3 73.32 µg/m3 166.79 µg/m3 20.98 µg/m3 17.26 °C 59.76 % 1,000.21 mbar 4.79 m/s 262.47 Deg -0.07 µg/m3
2023-01-17 21:00 4.2 µg/m3 0.06 µg/m3 74.73 µg/m3 101.28 µg/m3 16.13 µg/m3 17.44 °C 60.82 % 999.91 mbar 5.17 m/s 264.82 Deg 0.06 µg/m3
2023-01-17 20:00 5.52 µg/m3 0.04 µg/m3 74.13 µg/m3 70.25 µg/m3 19 µg/m3 17.34 °C 65.57 % 999.55 mbar 4.49 m/s 256.08 Deg 0.28 µg/m3
2023-01-17 19:00 5.79 µg/m3 0.02 µg/m3 73.99 µg/m3 49.53 µg/m3 13.94 µg/m3 17.09 °C 68.55 % 998.99 mbar 4.36 m/s 243.72 Deg 0.51 µg/m3
2023-01-17 18:00 7.02 µg/m3 0.04 µg/m3 72.88 µg/m3 51.75 µg/m3 7.86 µg/m3 16.87 °C 69.65 % 998.56 mbar 3.99 m/s 228.47 Deg 1.12 µg/m3
2023-01-17 17:00 6.32 µg/m3 0.05 µg/m3 72.3 µg/m3 45.93 µg/m3 10.11 µg/m3 17.24 °C 72.97 % 998.54 mbar 5.11 m/s 236.33 Deg 0.9 µg/m3
2023-01-17 16:00 7.34 µg/m3 0.05 µg/m3 72.96 µg/m3 54.07 µg/m3 9.12 µg/m3 17.78 °C 75.5 % 998.83 mbar 4.69 m/s 230.6 Deg 1.41 µg/m3
2023-01-17 15:00 5.29 µg/m3 0.07 µg/m3 73.28 µg/m3 39.19 µg/m3 8 µg/m3 18.03 °C 73.39 % 999.05 mbar 5.44 m/s 229.05 Deg 1.17 µg/m3
2023-01-17 14:00 5.08 µg/m3 0.1 µg/m3 71.97 µg/m3 38.78 µg/m3 10.45 µg/m3 18.28 °C 73.1 % 999.71 mbar 5.49 m/s 236.6 Deg 1.18 µg/m3
2023-01-17 13:00 0 µg/m3 0 µg/m3 0 µg/m3 32.56 µg/m3 14.8 µg/m3 18.19 °C 72.97 % 1,000.29 mbar 6.11 m/s 231.02 Deg 0 µg/m3
2023-01-17 12:00 0 µg/m3 0 µg/m3 0 µg/m3 46.85 µg/m3 8.55 µg/m3 17.95 °C 72.08 % 1,001.17 mbar 5.71 m/s 241.38 Deg 0 µg/m3
2023-01-17 11:00 0 µg/m3 0 µg/m3 0 µg/m3 46.8 µg/m3 8.6 µg/m3 17.63 °C 74.45 % 1,001.87 mbar 5.65 m/s 240.83 Deg 0 µg/m3
2023-01-17 10:00 0 µg/m3 0 µg/m3 0 µg/m3 43.88 µg/m3 12.58 µg/m3 16.93 °C 71.82 % 1,002.15 mbar 5.23 m/s 246.35 Deg 0 µg/m3
2023-01-17 09:00 0 µg/m3 0 µg/m3 0 µg/m3 36.02 µg/m3 12.71 µg/m3 16.49 °C 72.76 % 1,002.48 mbar 4.87 m/s 246.83 Deg 0 µg/m3
2023-01-17 08:00 11.94 µg/m3 0.05 µg/m3 72.27 µg/m3 46.81 µg/m3 10 µg/m3 15.95 °C 75.03 % 1,002.65 mbar 4.65 m/s 246.38 Deg 1.91 µg/m3
2023-01-17 07:00 11.37 µg/m3 0.07 µg/m3 70.39 µg/m3 50.22 µg/m3 10.51 µg/m3 15.76 °C 75.18 % 1,002.91 mbar 3.93 m/s 250.05 Deg 1.21 µg/m3
2023-01-17 06:00 6.18 µg/m3 0.06 µg/m3 76.38 µg/m3 26.76 µg/m3 6.17 µg/m3 15.82 °C 76.3 % 1,003.07 mbar 4.52 m/s 256.45 Deg 0.27 µg/m3
2023-01-17 05:00 3.59 µg/m3 0.05 µg/m3 79.13 µg/m3 28.81 µg/m3 6.01 µg/m3 15.77 °C 78.45 % 1,003.22 mbar 4.51 m/s 262.67 Deg -0.07 µg/m3
2023-01-17 04:00 2.4 µg/m3 0.09 µg/m3 82.02 µg/m3 36.44 µg/m3 7.24 µg/m3 15.64 °C 81.22 % 1,003.75 mbar 3.92 m/s 260.63 Deg -0.17 µg/m3
2023-01-17 03:00 2.22 µg/m3 0.07 µg/m3 84.15 µg/m3 25.13 µg/m3 7.79 µg/m3 15.64 °C 79.02 % 1,004.34 mbar 3.47 m/s 252.58 Deg -0.2 µg/m3
2023-01-17 02:00 1.97 µg/m3 0.06 µg/m3 84.09 µg/m3 14.73 µg/m3 8.89 µg/m3 15.63 °C 78.3 % 1,004.83 mbar 3.18 m/s 241.17 Deg -0.17 µg/m3
2023-01-17 01:00 2.06 µg/m3 0.06 µg/m3 85.3 µg/m3 14.66 µg/m3 9.38 µg/m3 15.72 °C 78.43 % 1,005.20 mbar 3.35 m/s 236.03 Deg -0.15 µg/m3
2023-01-17 00:00 3.45 µg/m3 0.05 µg/m3 86.36 µg/m3 21.99 µg/m3 5.06 µg/m3 15.46 °C 83.76 % 1,005.84 mbar 3.06 m/s 244.75 Deg -0.04 µg/m3
2023-01-16 23:00 5 µg/m3 0.09 µg/m3 83.67 µg/m3 21.18 µg/m3 5.71 µg/m3 15.14 °C 86.26 % 1,006.38 mbar 2.45 m/s 245.58 Deg -0.05 µg/m3
2023-01-16 22:00 7.6 µg/m3 0.07 µg/m3 84.43 µg/m3 17.57 µg/m3 6.98 µg/m3 15.28 °C 84.51 % 1,006.65 mbar 2.56 m/s 255.8 Deg 0.03 µg/m3
2023-01-16 21:00 7.37 µg/m3 0.1 µg/m3 87.81 µg/m3 20.2 µg/m3 6.42 µg/m3 15.47 °C 80.25 % 1,006.56 mbar 2.6 m/s 250.03 Deg 0.02 µg/m3
2023-01-16 20:00 10.15 µg/m3 0.1 µg/m3 90.86 µg/m3 28.84 µg/m3 6.54 µg/m3 15.62 °C 76.46 % 1,006.38 mbar 3.47 m/s 260.62 Deg 0.05 µg/m3
2023-01-16 19:00 16.24 µg/m3 0.09 µg/m3 86.23 µg/m3 23.51 µg/m3 5.66 µg/m3 15.79 °C 74.65 % 1,006.27 mbar 2.91 m/s 270.13 Deg 0.38 µg/m3
2023-01-16 18:00 21.58 µg/m3 0.09 µg/m3 81.21 µg/m3 28.15 µg/m3 7.48 µg/m3 15.96 °C 74.6 % 1,005.85 mbar 2.55 m/s 274.72 Deg 0.53 µg/m3
2023-01-16 17:00 14.68 µg/m3 0.07 µg/m3 86.6 µg/m3 25.54 µg/m3 5.27 µg/m3 16.72 °C 70.54 % 1,005.76 mbar 3.01 m/s 271.67 Deg 0.72 µg/m3
2023-01-16 16:00 12.5 µg/m3 0.11 µg/m3 86.18 µg/m3 38.53 µg/m3 4.78 µg/m3 17.39 °C 65.86 % 1,005.72 mbar 3.37 m/s 272.23 Deg 1.18 µg/m3
2023-01-16 15:00 13.78 µg/m3 0.1 µg/m3 81.28 µg/m3 25.1 µg/m3 5.23 µg/m3 18.1 °C 60.8 % 1,005.84 mbar 3.22 m/s 287.27 Deg 2.32 µg/m3
2023-01-16 14:00 13.96 µg/m3 0.09 µg/m3 80.84 µg/m3 15.66 µg/m3 6.66 µg/m3 18.51 °C 53.76 % 1,006.26 mbar 2.33 m/s 299.42 Deg 2.55 µg/m3
2023-01-16 13:00 10.37 µg/m3 0.08 µg/m3 81.78 µg/m3 18.88 µg/m3 6.66 µg/m3 17.74 °C 64.47 % 1,007.10 mbar 2.21 m/s 272.35 Deg 1.68 µg/m3
2023-01-16 12:00 10.1 µg/m3 0.1 µg/m3 81.28 µg/m3 25.72 µg/m3 7.24 µg/m3 17.15 °C 69.11 % 1,008.09 mbar 2.88 m/s 272.02 Deg 1.62 µg/m3
2023-01-16 11:00 10.57 µg/m3 0.11 µg/m3 79.09 µg/m3 33.68 µg/m3 7.58 µg/m3 16.96 °C 70.33 % 1,008.62 mbar 2.9 m/s 257.42 Deg 1.72 µg/m3
2023-01-16 10:00 11.87 µg/m3 0.08 µg/m3 78.34 µg/m3 39.32 µg/m3 8.34 µg/m3 16.57 °C 74.34 % 1,009.20 mbar 3.05 m/s 266.95 Deg 1.8 µg/m3
2023-01-16 09:00 17.27 µg/m3 0.14 µg/m3 71.12 µg/m3 26.01 µg/m3 12.57 µg/m3 15.71 °C 78.41 % 1,009.03 mbar 2.73 m/s 264.33 Deg 1.78 µg/m3
2023-01-16 08:00 24.25 µg/m3 0.11 µg/m3 61.42 µg/m3 24.5 µg/m3 8.17 µg/m3 14.69 °C 82.06 % 1,009.05 mbar 2.28 m/s 242.88 Deg 2.74 µg/m3
2023-01-16 07:00 25.56 µg/m3 0.13 µg/m3 59.04 µg/m3 38.89 µg/m3 9.16 µg/m3 14.65 °C 83.66 % 1,009.38 mbar 2.25 m/s 247.7 Deg 1.37 µg/m3
2023-01-16 06:00 7.64 µg/m3 0.09 µg/m3 73.99 µg/m3 37.66 µg/m3 7.11 µg/m3 14.83 °C 84.85 % 1,009.46 mbar 2.55 m/s 255.87 Deg 0.1 µg/m3
2023-01-16 05:00 4 µg/m3 0.09 µg/m3 79.41 µg/m3 57.77 µg/m3 6.88 µg/m3 14.86 °C 81.03 % 1,009.61 mbar 2.28 m/s 253.1 Deg -0.09 µg/m3
2023-01-16 04:00 2.68 µg/m3 0.08 µg/m3 77.85 µg/m3 38.09 µg/m3 9.4 µg/m3 14.73 °C 83.92 % 1,010.09 mbar 1.57 m/s 256.08 Deg -0.19 µg/m3
2023-01-16 03:00 3.36 µg/m3 0.11 µg/m3 78.82 µg/m3 15.81 µg/m3 9.46 µg/m3 14.45 °C 88.37 % 1,010.91 mbar 1.38 m/s 246.87 Deg -0.17 µg/m3
2023-01-16 02:00 2.27 µg/m3 0.09 µg/m3 82.16 µg/m3 11.21 µg/m3 6.5 µg/m3 14.54 °C 84.09 % 1,011.53 mbar 2.52 m/s 259.67 Deg -0.19 µg/m3
2023-01-16 01:00 2.35 µg/m3 0.06 µg/m3 80.78 µg/m3 10.02 µg/m3 5.27 µg/m3 14.29 °C 81.97 % 1,012.03 mbar 2.38 m/s 262.27 Deg -0.18 µg/m3
2023-01-16 00:00 4.12 µg/m3 0.08 µg/m3 77.66 µg/m3 12.49 µg/m3 5.4 µg/m3 14.15 °C 80.79 % 1,012.70 mbar 1.99 m/s 272.33 Deg -0.13 µg/m3
2023-01-15 23:00 8.62 µg/m3 0.13 µg/m3 72.68 µg/m3 16.49 µg/m3 6.41 µg/m3 14.05 °C 81.68 % 1,013.14 mbar 1.63 m/s 271.55 Deg -0.08 µg/m3
2023-01-15 22:00 11.94 µg/m3 0.15 µg/m3 70.74 µg/m3 26.14 µg/m3 5.77 µg/m3 13.93 °C 80.41 % 1,013.43 mbar 1.87 m/s 271.28 Deg 0.05 µg/m3
2023-01-15 21:00 14.36 µg/m3 0.14 µg/m3 70.02 µg/m3 22.47 µg/m3 6.72 µg/m3 14.14 °C 78.29 % 1,013.61 mbar 1.79 m/s 271.22 Deg 0.3 µg/m3
2023-01-15 20:00 23.14 µg/m3 0.14 µg/m3 60.44 µg/m3 24.62 µg/m3 6.42 µg/m3 14.34 °C 78.39 % 1,013.78 mbar 1.74 m/s 281.63 Deg 1.12 µg/m3
2023-01-15 19:00 28.68 µg/m3 0.15 µg/m3 55.39 µg/m3 16.55 µg/m3 5.81 µg/m3 14.36 °C 76.77 % 1,013.70 mbar 1.39 m/s 287.83 Deg 1.61 µg/m3
2023-01-15 18:00 29.13 µg/m3 0.13 µg/m3 55.34 µg/m3 14.37 µg/m3 6.34 µg/m3 14.63 °C 75.83 % 1,013.61 mbar 1.51 m/s 299.05 Deg 1.52 µg/m3
2023-01-15 17:00 14.22 µg/m3 0.12 µg/m3 74.48 µg/m3 20.98 µg/m3 5.75 µg/m3 15.58 °C 71.28 % 1,013.54 mbar 2.24 m/s 304.07 Deg 0.84 µg/m3
2023-01-15 16:00 8.82 µg/m3 0.13 µg/m3 81.64 µg/m3 18.18 µg/m3 4.76 µg/m3 16.38 °C 66.19 % 1,013.51 mbar 2.4 m/s 311.77 Deg 1.11 µg/m3
2023-01-15 15:00 7.4 µg/m3 0.15 µg/m3 80.66 µg/m3 14.13 µg/m3 5.89 µg/m3 16.6 °C 65.4 % 1,013.65 mbar 2.75 m/s 315.25 Deg 1.05 µg/m3
2023-01-15 14:00 8.71 µg/m3 0.14 µg/m3 79.11 µg/m3 12.91 µg/m3 6.33 µg/m3 17.01 °C 62.4 % 1,013.96 mbar 2.67 m/s 313 Deg 1.48 µg/m3
2023-01-15 13:00 10.94 µg/m3 0.2 µg/m3 76.2 µg/m3 15.04 µg/m3 6.36 µg/m3 16.36 °C 65.83 % 1,014.47 mbar 2.97 m/s 349.02 Deg 1.92 µg/m3
2023-01-15 12:00 13.46 µg/m3 0.23 µg/m3 73.14 µg/m3 19.23 µg/m3 5.12 µg/m3 16.22 °C 65.75 % 1,015.22 mbar 2.56 m/s 343.18 Deg 2.8 µg/m3
2023-01-15 11:00 10.29 µg/m3 0.13 µg/m3 74.09 µg/m3 19.65 µg/m3 6.07 µg/m3 15.68 °C 68.33 % 1,015.81 mbar 2.81 m/s 345.12 Deg 2 µg/m3
2023-01-15 10:00 11.54 µg/m3 0.19 µg/m3 70.78 µg/m3 29.28 µg/m3 5.22 µg/m3 15.4 °C 67.59 % 1,015.58 mbar 2.74 m/s 350.15 Deg 2.21 µg/m3
2023-01-15 09:00 30.57 µg/m3 0.2 µg/m3 49.39 µg/m3 22.88 µg/m3 5.37 µg/m3 14.57 °C 72.05 % 1,015.32 mbar 1.89 m/s 345.23 Deg 4.66 µg/m3
2023-01-15 08:00 34.28 µg/m3 0.14 µg/m3 45.52 µg/m3 18.63 µg/m3 6.33 µg/m3 13.7 °C 73.84 % 1,015.19 mbar 2.27 m/s 346.92 Deg 3.47 µg/m3
2023-01-15 07:00 27.34 µg/m3 0.11 µg/m3 53.75 µg/m3 13.17 µg/m3 5.1 µg/m3 13.83 °C 72.12 % 1,014.86 mbar 2.3 m/s 348.45 Deg 0.7 µg/m3
2023-01-15 06:00 9.49 µg/m3 0.1 µg/m3 72.54 µg/m3 11.23 µg/m3 6.23 µg/m3 14.24 °C 70.87 % 1,014.50 mbar 3.02 m/s 349.15 Deg -0.01 µg/m3
2023-01-15 05:00 7.11 µg/m3 0.12 µg/m3 75.84 µg/m3 12.88 µg/m3 5.15 µg/m3 14.47 °C 70.32 % 1,014.34 mbar 3.55 m/s 348.23 Deg -0.04 µg/m3
2023-01-15 04:00 7.15 µg/m3 0.15 µg/m3 75.69 µg/m3 18.66 µg/m3 5.6 µg/m3 14.6 °C 69.01 % 1,014.35 mbar 3.5 m/s 349.1 Deg -0.1 µg/m3
2023-01-15 03:00 17.39 µg/m3 0.12 µg/m3 66.04 µg/m3 15.11 µg/m3 6.45 µg/m3 14.48 °C 74.53 % 1,014.44 mbar 2.98 m/s 339.4 Deg -0.1 µg/m3
2023-01-15 02:00 9.39 µg/m3 0.14 µg/m3 67.3 µg/m3 15.22 µg/m3 5.86 µg/m3 14.13 °C 75.11 % 1,014.51 mbar 2.06 m/s 330.37 Deg 0.07 µg/m3
2023-01-15 01:00 17.62 µg/m3 0.15 µg/m3 52.87 µg/m3 19.61 µg/m3 5.64 µg/m3 13.79 °C 78.15 % 1,014.70 mbar 1.66 m/s 322.3 Deg 0.3 µg/m3
2023-01-15 00:00 19.74 µg/m3 0.14 µg/m3 50.69 µg/m3 28.01 µg/m3 7.45 µg/m3 13.98 °C 77.34 % 1,014.96 mbar 1.77 m/s 314.12 Deg 0.71 µg/m3
2023-01-14 23:00 22.31 µg/m3 0.18 µg/m3 52.27 µg/m3 23.9 µg/m3 10.71 µg/m3 14.99 °C 73.08 % 1,014.89 mbar 1.62 m/s 331.62 Deg 1.98 µg/m3
2023-01-14 22:00 12.33 µg/m3 0.15 µg/m3 65.2 µg/m3 34.96 µg/m3 16.28 µg/m3 15.4 °C 72.05 % 1,014.75 mbar 2.9 m/s 342.22 Deg 0.55 µg/m3
2023-01-14 21:00 15.72 µg/m3 0.18 µg/m3 60.25 µg/m3 33.21 µg/m3 10.73 µg/m3 15.01 °C 83.48 % 1,014.64 mbar 2.4 m/s 326.48 Deg 1.3 µg/m3
2023-01-14 20:00 30.68 µg/m3 0.18 µg/m3 45.6 µg/m3 38.16 µg/m3 10.05 µg/m3 14.74 °C 81.39 % 1,014.42 mbar 1.88 m/s 322.03 Deg 3.27 µg/m3
2023-01-14 19:00 32.11 µg/m3 0.22 µg/m3 43.96 µg/m3 31.98 µg/m3 6.36 µg/m3 14.61 °C 79.86 % 1,014.11 mbar 1.76 m/s 307.07 Deg 3.3 µg/m3
2023-01-14 18:00 23.47 µg/m3 0.15 µg/m3 55.64 µg/m3 21.54 µg/m3 4.77 µg/m3 15.16 °C 76.19 % 1,013.72 mbar 1.97 m/s 324.48 Deg 1.99 µg/m3
2023-01-14 17:00 14.72 µg/m3 0.13 µg/m3 66.09 µg/m3 26.22 µg/m3 5.99 µg/m3 15.87 °C 72.44 % 1,013.34 mbar 2.76 m/s 328.73 Deg 1.81 µg/m3
2023-01-14 16:00 8.79 µg/m3 0.15 µg/m3 72.69 µg/m3 20.39 µg/m3 5.95 µg/m3 16.51 °C 72.77 % 1,012.96 mbar 3.78 m/s 338.05 Deg 1.16 µg/m3
2023-01-14 15:00 9.6 µg/m3 0.12 µg/m3 71.59 µg/m3 17.04 µg/m3 6.03 µg/m3 17.11 °C 73.81 % 1,012.87 mbar 3.5 m/s 316.57 Deg 2.03 µg/m3
2023-01-14 14:00 11.49 µg/m3 0.12 µg/m3 70.66 µg/m3 24.42 µg/m3 6.47 µg/m3 16.74 °C 72.04 % 1,013.04 mbar 3.38 m/s 328.18 Deg 2.05 µg/m3
2023-01-14 13:00 12.6 µg/m3 0.14 µg/m3 68.61 µg/m3 34 µg/m3 8.51 µg/m3 16.85 °C 72.46 % 1,013.73 mbar 3.36 m/s 332 Deg 2.73 µg/m3
2023-01-14 12:00 14.02 µg/m3 0.14 µg/m3 66.12 µg/m3 38.01 µg/m3 10.65 µg/m3 16.68 °C 74.71 % 1,014.55 mbar 3.66 m/s 331.55 Deg 3.13 µg/m3
2023-01-14 11:00 17.46 µg/m3 0.19 µg/m3 61.57 µg/m3 37.4 µg/m3 8.91 µg/m3 16.75 °C 76.25 % 1,014.86 mbar 3.1 m/s 330.2 Deg 4.15 µg/m3
2023-01-14 10:00 23.71 µg/m3 0.22 µg/m3 53.57 µg/m3 32.56 µg/m3 8.93 µg/m3 16.13 °C 80.41 % 1,014.67 mbar 2.6 m/s 329.82 Deg 6.13 µg/m3
2023-01-14 09:00 51.67 µg/m3 0.37 µg/m3 21.36 µg/m3 25.84 µg/m3 5.72 µg/m3 14.17 °C 91.06 % 1,014.35 mbar 1.79 m/s 306.08 Deg 16.37 µg/m3
2023-01-14 08:00 50.41 µg/m3 0.24 µg/m3 18.61 µg/m3 28.5 µg/m3 5.73 µg/m3 13.51 °C 93.23 % 1,014.17 mbar 1.7 m/s 311.23 Deg 10.04 µg/m3
2023-01-14 07:00 35.69 µg/m3 0.18 µg/m3 31.16 µg/m3 17.84 µg/m3 6.09 µg/m3 13.5 °C 93.35 % 1,014.21 mbar 1.53 m/s 305.43 Deg 2.97 µg/m3
2023-01-14 06:00 19.57 µg/m3 0.15 µg/m3 47.8 µg/m3 16.5 µg/m3 5.31 µg/m3 13.69 °C 91.45 % 1,014.18 mbar 1.39 m/s 299.1 Deg 0.98 µg/m3
2023-01-14 05:00 7.32 µg/m3 0.13 µg/m3 61.14 µg/m3 22.86 µg/m3 5.22 µg/m3 13.74 °C 89.27 % 1,014.26 mbar 1.55 m/s 306.96 Deg -0.03 µg/m3
2023-01-14 04:00 9.04 µg/m3 0.16 µg/m3 59.11 µg/m3 14.09 µg/m3 6.76 µg/m3 13.39 °C 87 % 1,014.58 mbar 1.14 m/s 298.78 Deg 0.02 µg/m3
2023-01-14 03:00 6.04 µg/m3 0.08 µg/m3 68.45 µg/m3 14.96 µg/m3 6.08 µg/m3 13.74 °C 85 % 1,014.98 mbar 1.59 m/s 309.57 Deg -0.06 µg/m3
2023-01-14 02:00 6.64 µg/m3 0.13 µg/m3 69.12 µg/m3 15.04 µg/m3 7.4 µg/m3 13.83 °C 84.47 % 1,015.12 mbar 1.84 m/s 319.23 Deg -0.03 µg/m3
2023-01-14 01:00 15.24 µg/m3 0.14 µg/m3 54.03 µg/m3 17.67 µg/m3 7.36 µg/m3 13.06 °C 87.68 % 1,015.31 mbar 1.35 m/s 309.58 Deg 0.12 µg/m3
2023-01-14 00:00 18.59 µg/m3 0.3 µg/m3 48.41 µg/m3 23.39 µg/m3 10.68 µg/m3 12.97 °C 88.26 % 1,015.60 mbar 1.21 m/s 304.22 Deg 0.55 µg/m3
2023-01-13 23:00 22.56 µg/m3 0.27 µg/m3 44.22 µg/m3 30.26 µg/m3 16.25 µg/m3 13.2 °C 88.23 % 1,015.77 mbar 1.32 m/s 298.08 Deg 0.86 µg/m3
2023-01-13 22:00 24.78 µg/m3 0.2 µg/m3 44.19 µg/m3 37.62 µg/m3 7.86 µg/m3 13.35 °C 87.34 % 1,015.90 mbar 1.39 m/s 299.67 Deg 1.57 µg/m3
2023-01-13 21:00 30.37 µg/m3 0.21 µg/m3 41.75 µg/m3 35.63 µg/m3 8.27 µg/m3 13.73 °C 83.97 % 1,016.11 mbar 1.63 m/s 308 Deg 2.59 µg/m3
2023-01-13 20:00 55.73 µg/m3 0.33 µg/m3 21.16 µg/m3 46.09 µg/m3 9.23 µg/m3 13.51 °C 80.83 % 1,016.31 mbar 1.28 m/s 286.65 Deg 6.32 µg/m3
2023-01-13 19:00 62.37 µg/m3 0.33 µg/m3 19.51 µg/m3 30.02 µg/m3 5.14 µg/m3 13.85 °C 77.48 % 1,015.95 mbar 1.27 m/s 309.82 Deg 9.27 µg/m3
2023-01-13 18:00 46.6 µg/m3 0.32 µg/m3 34.55 µg/m3 23.5 µg/m3 5.1 µg/m3 14.53 °C 74.36 % 1,015.68 mbar 1.52 m/s 325.2 Deg 7.48 µg/m3
2023-01-13 17:00 22.83 µg/m3 0.2 µg/m3 57.94 µg/m3 19.81 µg/m3 6.15 µg/m3 15.32 °C 73.91 % 1,015.48 mbar 2.23 m/s 338.32 Deg 2.93 µg/m3
2023-01-13 16:00 15.1 µg/m3 0.16 µg/m3 64.44 µg/m3 27.17 µg/m3 6.59 µg/m3 15.51 °C 77.81 % 1,015.22 mbar 2.24 m/s 181.15 Deg 3.49 µg/m3
2023-01-13 15:00 13.39 µg/m3 0.16 µg/m3 66.58 µg/m3 26.33 µg/m3 8.54 µg/m3 15.35 °C 79.84 % 1,014.92 mbar 2.42 m/s 7.1 Deg 3.67 µg/m3
2023-01-13 14:00 11.17 µg/m3 0.18 µg/m3 70.41 µg/m3 23.2 µg/m3 10.07 µg/m3 15.58 °C 79.92 % 1,015.09 mbar 2.56 m/s 5.32 Deg 2.65 µg/m3
2023-01-13 13:00 17.53 µg/m3 0.19 µg/m3 61.18 µg/m3 30.76 µg/m3 12.96 µg/m3 15.37 °C 83.36 % 1,015.64 mbar 1.82 m/s 18.4 Deg 3.99 µg/m3
2023-01-13 12:00 21.32 µg/m3 0.28 µg/m3 55.13 µg/m3 39.53 µg/m3 14.51 µg/m3 15.9 °C 80.52 % 1,016.08 mbar 1.53 m/s 247.34 Deg 4.9 µg/m3
2023-01-13 11:00 54.4 µg/m3 0.52 µg/m3 19.55 µg/m3 44.03 µg/m3 9.83 µg/m3 14.8 °C 88.75 % 1,016.55 mbar 0.96 m/s 309.35 Deg 26.35 µg/m3
2023-01-13 10:00 64.79 µg/m3 0.59 µg/m3 15.89 µg/m3 27.51 µg/m3 14.88 µg/m3 14.98 °C 85.09 % 1,016.16 mbar 1.11 m/s 291.88 Deg 30.37 µg/m3
2023-01-13 09:00 78.98 µg/m3 1.1 µg/m3 4.76 µg/m3 23.09 µg/m3 10.07 µg/m3 14.05 °C 89.58 % 1,015.74 mbar 1.14 m/s 301.42 Deg 80.46 µg/m3
2023-01-13 08:00 71.78 µg/m3 0.74 µg/m3 8.18 µg/m3 15.25 µg/m3 12.72 µg/m3 13.93 °C 88.6 % 1,015.27 mbar 1.07 m/s 177.05 Deg 55.25 µg/m3
2023-01-13 07:00 67.04 µg/m3 0.61 µg/m3 7.42 µg/m3 11.33 µg/m3 4.45 µg/m3 13.71 °C 89.88 % 1,014.92 mbar 0.84 m/s 25.56 Deg 46.02 µg/m3
2023-01-13 06:00 39.86 µg/m3 0.23 µg/m3 20.31 µg/m3 11.33 µg/m3 5.28 µg/m3 13.41 °C 93.82 % 1,014.36 mbar 1.26 m/s 247.88 Deg 7.34 µg/m3
2023-01-13 05:00 24.32 µg/m3 0.16 µg/m3 38.41 µg/m3 11.66 µg/m3 6.68 µg/m3 14.04 °C 86.53 % 1,013.97 mbar 1.09 m/s 326.23 Deg 1.4 µg/m3
2023-01-13 04:00 6.78 µg/m3 0.15 µg/m3 60.71 µg/m3 12.71 µg/m3 10.47 µg/m3 14.16 °C 85.13 % 1,013.98 mbar 1.3 m/s 349.13 Deg -0.03 µg/m3
2023-01-13 03:00 10.65 µg/m3 0.08 µg/m3 56.7 µg/m3 14.47 µg/m3 7.34 µg/m3 14.06 °C 88.17 % 1,014.19 mbar 1.15 m/s 353.65 Deg 0.39 µg/m3
2023-01-13 02:00 28.43 µg/m3 0.11 µg/m3 41.67 µg/m3 16.45 µg/m3 8.83 µg/m3 13.96 °C 93.81 % 1,014.20 mbar 1.05 m/s 165.15 Deg 0.28 µg/m3
2023-01-13 01:00 20.05 µg/m3 0.1 µg/m3 42.56 µg/m3 23.8 µg/m3 8.53 µg/m3 13.87 °C 97.43 % 1,014.24 mbar 1.2 m/s 325.77 Deg 0.03 µg/m3
2023-01-13 00:00 10.74 µg/m3 0.09 µg/m3 63.87 µg/m3 27.29 µg/m3 5.34 µg/m3 14.77 °C 86.46 % 1,014.06 mbar 3.61 m/s 98.3 Deg -0.08 µg/m3
2023-01-12 23:00 13.71 µg/m3 0.14 µg/m3 64.23 µg/m3 23.38 µg/m3 7.8 µg/m3 15.24 °C 78.58 % 1,013.91 mbar 4.2 m/s 343.2 Deg 0.09 µg/m3
2023-01-12 22:00 15.75 µg/m3 0.11 µg/m3 61.19 µg/m3 30.97 µg/m3 7.95 µg/m3 15.25 °C 79.06 % 1,013.50 mbar 4.75 m/s 338.67 Deg 0.14 µg/m3
2023-01-12 21:00 14.22 µg/m3 0.14 µg/m3 60.62 µg/m3 27.16 µg/m3 6.72 µg/m3 14.68 °C 82.99 % 1,013.45 mbar 2.68 m/s 321.8 Deg 1.05 µg/m3
2023-01-12 20:00 21.86 µg/m3 0.17 µg/m3 52.37 µg/m3 28.31 µg/m3 9.73 µg/m3 14.6 °C 86.95 % 1,013.28 mbar 2.08 m/s 310.53 Deg 2.16 µg/m3
2023-01-12 19:00 22.65 µg/m3 0.14 µg/m3 55.73 µg/m3 25.24 µg/m3 5.4 µg/m3 14.94 °C 83.09 % 1,013.00 mbar 2.5 m/s 320.62 Deg 1.62 µg/m3
2023-01-12 18:00 26.89 µg/m3 0.15 µg/m3 54.04 µg/m3 34.33 µg/m3 5.65 µg/m3 14.99 °C 74.44 % 1,012.55 mbar 2.61 m/s 313.65 Deg 2.91 µg/m3
2023-01-12 17:00 18.87 µg/m3 0.14 µg/m3 60.34 µg/m3 25.74 µg/m3 6.34 µg/m3 15.87 °C 77.42 % 1,012.07 mbar 3.36 m/s 312.93 Deg 2.94 µg/m3
2023-01-12 16:00 15.25 µg/m3 0.15 µg/m3 63.61 µg/m3 21.67 µg/m3 7.63 µg/m3 16.8 °C 75.71 % 1,011.60 mbar 3.79 m/s 324.15 Deg 3.25 µg/m3
2023-01-12 15:00 14.42 µg/m3 0.19 µg/m3 64.04 µg/m3 21.45 µg/m3 9.27 µg/m3 17.07 °C 75.98 % 1,011.54 mbar 4.11 m/s 333.9 Deg 3.7 µg/m3
2023-01-12 14:00 15.72 µg/m3 0.22 µg/m3 61.04 µg/m3 17.82 µg/m3 13.85 µg/m3 16.52 °C 83.01 % 1,011.75 mbar 3.41 m/s 312.77 Deg 4.27 µg/m3
2023-01-12 13:00 22.18 µg/m3 0.24 µg/m3 51.57 µg/m3 26.17 µg/m3 10.51 µg/m3 14.79 °C 95.76 % 1,012.72 mbar 2.76 m/s 317.95 Deg 4.91 µg/m3
2023-01-12 12:00 35.7 µg/m3 0.31 µg/m3 40.79 µg/m3 33.6 µg/m3 8.09 µg/m3 15.16 °C 93.24 % 1,013.45 mbar 2.04 m/s 315.28 Deg 7.58 µg/m3
2023-01-12 11:00 33.69 µg/m3 0.28 µg/m3 45.62 µg/m3 33.64 µg/m3 12.39 µg/m3 15.92 °C 83.96 % 1,013.86 mbar 2.15 m/s 311.83 Deg 5.86 µg/m3
2023-01-12 10:00 35.57 µg/m3 0.36 µg/m3 45.32 µg/m3 38.47 µg/m3 11.89 µg/m3 16.11 °C 82.23 % 1,013.77 mbar 2.04 m/s 317.98 Deg 8 µg/m3
2023-01-12 09:00 63.82 µg/m3 0.69 µg/m3 17.18 µg/m3 44.76 µg/m3 4.82 µg/m3 14.79 °C 86.43 % 1,013.67 mbar 1.62 m/s 309.78 Deg 29.97 µg/m3
2023-01-12 08:00 74.16 µg/m3 0.92 µg/m3 5.18 µg/m3 29.94 µg/m3 6.2 µg/m3 12.83 °C 92.8 % 1,013.82 mbar 1.35 m/s 303.62 Deg 44.71 µg/m3
2023-01-12 07:00 71.9 µg/m3 0.77 µg/m3 4.78 µg/m3 14.75 µg/m3 6.16 µg/m3 12.45 °C 91.32 % 1,013.87 mbar 1.05 m/s 298.12 Deg 41.54 µg/m3
2023-01-12 06:00 31.6 µg/m3 0.27 µg/m3 40.71 µg/m3 15.52 µg/m3 4.85 µg/m3 12.81 °C 87.84 % 1,013.92 mbar 1.46 m/s 302.82 Deg 4.9 µg/m3
2023-01-12 05:00 7.7 µg/m3 0.18 µg/m3 66.6 µg/m3 10.5 µg/m3 4.42 µg/m3 13.09 °C 83.95 % 1,013.97 mbar 1.51 m/s 327.15 Deg 0.08 µg/m3
2023-01-12 04:00 6.4 µg/m3 0.24 µg/m3 63.06 µg/m3 9.9 µg/m3 4.4 µg/m3 12.33 °C 81.04 % 1,014.46 mbar 1.06 m/s 301.18 Deg -0.09 µg/m3
2023-01-12 03:00 5.02 µg/m3 0.17 µg/m3 67.02 µg/m3 11.07 µg/m3 4.48 µg/m3 12.15 °C 75.27 % 1,014.73 mbar 1.28 m/s 303.08 Deg -0.17 µg/m3
2023-01-12 02:00 5.75 µg/m3 0.14 µg/m3 67.24 µg/m3 16.04 µg/m3 4.82 µg/m3 12.45 °C 71.4 % 1,014.84 mbar 1.58 m/s 322.28 Deg -0.13 µg/m3
2023-01-12 01:00 5.74 µg/m3 0.16 µg/m3 68.07 µg/m3 22.51 µg/m3 5.96 µg/m3 12.51 °C 75.1 % 1,014.99 mbar 1.72 m/s 312.45 Deg -0.08 µg/m3
2023-01-12 00:00 9.02 µg/m3 0.17 µg/m3 64.31 µg/m3 24.18 µg/m3 8.04 µg/m3 12.74 °C 76.01 % 1,015.23 mbar 2.12 m/s 309.87 Deg 0.11 µg/m3
2023-01-11 23:00 9.7 µg/m3 0.19 µg/m3 65.93 µg/m3 25.35 µg/m3 9.81 µg/m3 13.32 °C 74.23 % 1,015.38 mbar 1.71 m/s 305.95 Deg 0.19 µg/m3
2023-01-11 22:00 13.6 µg/m3 0.22 µg/m3 61.19 µg/m3 20.59 µg/m3 9.23 µg/m3 13.22 °C 74.73 % 1,015.30 mbar 1.81 m/s 284.48 Deg 0.26 µg/m3
2023-01-11 21:00 27.9 µg/m3 0.2 µg/m3 49.17 µg/m3 25.82 µg/m3 4.87 µg/m3 13.46 °C 72.53 % 1,015.22 mbar 1.44 m/s 317.37 Deg 1.68 µg/m3
2023-01-11 20:00 29.06 µg/m3 0.21 µg/m3 50.13 µg/m3 23.17 µg/m3 4.77 µg/m3 13.48 °C 71.03 % 1,015.16 mbar 1.98 m/s 308.15 Deg 2.17 µg/m3
2023-01-11 19:00 35.34 µg/m3 0.24 µg/m3 45.87 µg/m3 25.26 µg/m3 6.07 µg/m3 13.69 °C 69.05 % 1,014.88 mbar 1.77 m/s 295.67 Deg 2.93 µg/m3
2023-01-11 18:00 25.05 µg/m3 0.19 µg/m3 60.08 µg/m3 37.91 µg/m3 6.4 µg/m3 14.44 °C 64.55 % 1,014.54 mbar 2.51 m/s 306.15 Deg 1.63 µg/m3
2023-01-11 17:00 17.88 µg/m3 0.22 µg/m3 69.09 µg/m3 20.44 µg/m3 5.47 µg/m3 15.25 °C 58.23 % 1,014.22 mbar 3.12 m/s 331.62 Deg 2.48 µg/m3
2023-01-11 16:00 11.93 µg/m3 0.2 µg/m3 75.4 µg/m3 12.73 µg/m3 4.38 µg/m3 15.67 °C 54.56 % 1,013.87 mbar 4.62 m/s 337.17 Deg 2.47 µg/m3
2023-01-11 15:00 10.15 µg/m3 0.2 µg/m3 77.59 µg/m3 17.08 µg/m3 4.71 µg/m3 15.78 °C 54.5 % 1,013.62 mbar 5.17 m/s 340.07 Deg 1.99 µg/m3
2023-01-11 14:00 8.83 µg/m3 0.2 µg/m3 76.97 µg/m3 22.64 µg/m3 5.12 µg/m3 15.95 °C 52.56 % 1,013.82 mbar 4.79 m/s 336.07 Deg 1.77 µg/m3
2023-01-11 13:00 9.39 µg/m3 0.2 µg/m3 74.42 µg/m3 15.23 µg/m3 5.37 µg/m3 16.09 °C 48.07 % 1,014.36 mbar 4.81 m/s 342.7 Deg 2.34 µg/m3
2023-01-11 12:00 9.63 µg/m3 0.21 µg/m3 72.82 µg/m3 17.5 µg/m3 5.71 µg/m3 16 °C 47.16 % 1,014.71 mbar 4.87 m/s 334.65 Deg 2.36 µg/m3
2023-01-11 11:00 11.59 µg/m3 0.26 µg/m3 69.73 µg/m3 29.31 µg/m3 5.32 µg/m3 15.74 °C 49.12 % 1,015.05 mbar 4.5 m/s 338.18 Deg 2.62 µg/m3
2023-01-11 10:00 15.81 µg/m3 0.22 µg/m3 64.95 µg/m3 35.5 µg/m3 6.73 µg/m3 15.31 °C 51.94 % 1,014.70 mbar 4.27 m/s 342.35 Deg 3.53 µg/m3
2023-01-11 09:00 22.47 µg/m3 0.22 µg/m3 58.5 µg/m3 20.98 µg/m3 6.56 µg/m3 14.73 °C 53.59 % 1,014.36 mbar 4 m/s 349.52 Deg 3.56 µg/m3
2023-01-11 08:00 22.71 µg/m3 0.19 µg/m3 58.45 µg/m3 19.69 µg/m3 5.65 µg/m3 14.28 °C 55.63 % 1,014.20 mbar 4.16 m/s 344.87 Deg 2.03 µg/m3
2023-01-11 07:00 16.99 µg/m3 0.19 µg/m3 64.03 µg/m3 19.77 µg/m3 5.56 µg/m3 14.12 °C 56.56 % 1,013.78 mbar 4.46 m/s 343.95 Deg 1.23 µg/m3
2023-01-11 06:00 8.27 µg/m3 0.15 µg/m3 72.39 µg/m3 12.84 µg/m3 5.32 µg/m3 14.11 °C 55.86 % 1,013.19 mbar 4.66 m/s 339.32 Deg 0.31 µg/m3
2023-01-11 05:00 4.14 µg/m3 0.14 µg/m3 74.92 µg/m3 16.6 µg/m3 5.38 µg/m3 13.56 °C 60.26 % 1,012.84 mbar 3.36 m/s 316.92 Deg -0.09 µg/m3
2023-01-11 04:00 3.31 µg/m3 0.18 µg/m3 76.23 µg/m3 13.5 µg/m3 6.71 µg/m3 13.78 °C 58.92 % 1,013.00 mbar 3.58 m/s 323.35 Deg -0.17 µg/m3
2023-01-11 03:00 3.37 µg/m3 0.14 µg/m3 76.62 µg/m3 11.8 µg/m3 6.22 µg/m3 14.01 °C 59.21 % 1,013.23 mbar 3.55 m/s 326.72 Deg -0.21 µg/m3
2023-01-11 02:00 3.22 µg/m3 0.14 µg/m3 76.84 µg/m3 16.52 µg/m3 8.08 µg/m3 14.03 °C 60.29 % 1,013.38 mbar 3.49 m/s 328.18 Deg -0.22 µg/m3
2023-01-11 01:00 3.52 µg/m3 0.13 µg/m3 77.66 µg/m3 19.82 µg/m3 5.85 µg/m3 13.99 °C 60.23 % 1,013.37 mbar 3.7 m/s 331.13 Deg -0.2 µg/m3
2023-01-11 00:00 3.25 µg/m3 0.13 µg/m3 79.85 µg/m3 20.56 µg/m3 6.17 µg/m3 14.15 °C 56.26 % 1,013.52 mbar 4.28 m/s 334.33 Deg -0.13 µg/m3
2023-01-10 23:00 3.99 µg/m3 0.15 µg/m3 79.93 µg/m3 25.53 µg/m3 6.21 µg/m3 14.28 °C 52.92 % 1,013.34 mbar 5.57 m/s 336.72 Deg -0.03 µg/m3
2023-01-10 22:00 5.53 µg/m3 0.17 µg/m3 78.22 µg/m3 23.53 µg/m3 6.71 µg/m3 14.27 °C 57.09 % 1,013.22 mbar 4.88 m/s 333.05 Deg -0.02 µg/m3
2023-01-10 21:00 7.63 µg/m3 0.14 µg/m3 76.16 µg/m3 18.76 µg/m3 7.05 µg/m3 13.96 °C 57.66 % 1,012.93 mbar 4.35 m/s 333.62 Deg 0.52 µg/m3
2023-01-10 20:00 9.47 µg/m3 0.16 µg/m3 74.32 µg/m3 17.69 µg/m3 7.58 µg/m3 14.03 °C 53.45 % 1,012.33 mbar 4.28 m/s 329.15 Deg 0.53 µg/m3
2023-01-10 19:00 16.95 µg/m3 0.17 µg/m3 68.25 µg/m3 24.47 µg/m3 8.36 µg/m3 13.31 °C 57.91 % 1,011.96 mbar 3.88 m/s 315.83 Deg 1.78 µg/m3
2023-01-10 18:00 15.12 µg/m3 0.15 µg/m3 69.82 µg/m3 40.38 µg/m3 10.36 µg/m3 13.54 °C 62.36 % 1,011.51 mbar 5.17 m/s 330.65 Deg 2.36 µg/m3
2023-01-10 17:00 16.95 µg/m3 0.17 µg/m3 62.85 µg/m3 44.9 µg/m3 6.87 µg/m3 13.52 °C 70.79 % 1,011.24 mbar 3.62 m/s 328.02 Deg 2.92 µg/m3
2023-01-10 16:00 12.27 µg/m3 0.13 µg/m3 70.11 µg/m3 37.96 µg/m3 7.43 µg/m3 13.75 °C 68.88 % 1,010.76 mbar 5.3 m/s 341.07 Deg 1.7 µg/m3
2023-01-10 15:00 11.03 µg/m3 0.15 µg/m3 75.04 µg/m3 40.47 µg/m3 3.44 µg/m3 15.05 °C 60.43 % 1,010.25 mbar 6.23 m/s 329.27 Deg 2.45 µg/m3
2023-01-10 14:00 9.41 µg/m3 0.14 µg/m3 77.01 µg/m3 27.27 µg/m3 3.99 µg/m3 16.11 °C 48.19 % 1,009.84 mbar 6.5 m/s 317.85 Deg 2.2 µg/m3
2023-01-10 13:00 9.02 µg/m3 0.12 µg/m3 75.48 µg/m3 32.25 µg/m3 5.1 µg/m3 16.04 °C 50.98 % 1,010.15 mbar 7.58 m/s 306.13 Deg 2.53 µg/m3
2023-01-10 12:00 10.97 µg/m3 0.16 µg/m3 73.68 µg/m3 35.84 µg/m3 4.85 µg/m3 15.15 °C 59.86 % 1,011.30 mbar 5.75 m/s 314.12 Deg 2.39 µg/m3
2023-01-10 11:00 11.62 µg/m3 0.12 µg/m3 72.22 µg/m3 27.38 µg/m3 5.15 µg/m3 14.96 °C 58.96 % 1,011.63 mbar 5.57 m/s 318.48 Deg 2.41 µg/m3
2023-01-10 10:00 11.77 µg/m3 0.15 µg/m3 70.93 µg/m3 19.91 µg/m3 5.2 µg/m3 15.96 °C 53.91 % 1,011.45 mbar 6.1 m/s 312.61 Deg 2.45 µg/m3
2023-01-10 09:00 15.76 µg/m3 0.11 µg/m3 68.78 µg/m3 24.28 µg/m3 5.97 µg/m3 15.28 °C 59.31 % 1,011.10 mbar 5.32 m/s 308.63 Deg 3.11 µg/m3
2023-01-10 08:00 16.94 µg/m3 0.11 µg/m3 68.56 µg/m3 13.28 µg/m3 5.15 µg/m3 14.58 °C 63.14 % 1,011.38 mbar 5.06 m/s 302.67 Deg 2.85 µg/m3
2023-01-10 07:00 11.81 µg/m3 0.12 µg/m3 73.36 µg/m3 8.43 µg/m3 4.88 µg/m3 14.82 °C 65.52 % 1,011.29 mbar 4.36 m/s 304.67 Deg 1.47 µg/m3
2023-01-10 06:00 6.53 µg/m3 0.06 µg/m3 77.65 µg/m3 10.98 µg/m3 5.64 µg/m3 14.76 °C 65.27 % 1,011.19 mbar 4.25 m/s 301.28 Deg 0.4 µg/m3
2023-01-10 05:00 3.86 µg/m3 0.06 µg/m3 77.16 µg/m3 11.78 µg/m3 5.48 µg/m3 14.69 °C 67 % 1,011.27 mbar 3.2 m/s 306.93 Deg 0.1 µg/m3
2023-01-10 04:00 1.92 µg/m3 0.09 µg/m3 79.95 µg/m3 12.74 µg/m3 5.28 µg/m3 14.9 °C 65.23 % 1,011.39 mbar 3.37 m/s 325.32 Deg -0.15 µg/m3
2023-01-10 03:00 1.87 µg/m3 0.06 µg/m3 78.89 µg/m3 18.96 µg/m3 6.96 µg/m3 15.16 °C 71.91 % 1,011.50 mbar 3.56 m/s 313.27 Deg -0.21 µg/m3
2023-01-10 02:00 1.68 µg/m3 0.05 µg/m3 74.49 µg/m3 22.04 µg/m3 6.91 µg/m3 15.25 °C 86.25 % 1,011.35 mbar 3.75 m/s 303.65 Deg -0.19 µg/m3
2023-01-10 01:00 1.58 µg/m3 0.07 µg/m3 73.2 µg/m3 30.11 µg/m3 9.18 µg/m3 14.6 °C 92.52 % 1,011.55 mbar 3.89 m/s 288.45 Deg -0.19 µg/m3
2023-01-10 00:00 2.34 µg/m3 0.03 µg/m3 72.24 µg/m3 49.92 µg/m3 14.23 µg/m3 14.2 °C 95.08 % 1,011.72 mbar 3.77 m/s 296.5 Deg -0.07 µg/m3
2023-01-09 23:00 3.87 µg/m3 0.13 µg/m3 69.64 µg/m3 51.39 µg/m3 10.56 µg/m3 15.48 °C 94.93 % 1,011.77 mbar 3.65 m/s 313.78 Deg 0.03 µg/m3
2023-01-09 22:00 5.92 µg/m3 0.06 µg/m3 78.85 µg/m3 42.49 µg/m3 8.99 µg/m3 17.16 °C 84.97 % 1,011.24 mbar 3.08 m/s 276.75 Deg 0.04 µg/m3
2023-01-09 21:00 6.22 µg/m3 0.09 µg/m3 80.45 µg/m3 33.49 µg/m3 6.03 µg/m3 17.08 °C 84.07 % 1,010.89 mbar 3.79 m/s 254.37 Deg 0.08 µg/m3
2023-01-09 20:00 8.16 µg/m3 0.1 µg/m3 81.07 µg/m3 37.62 µg/m3 8.01 µg/m3 16.7 °C 84 % 1,010.78 mbar 3.22 m/s 251.52 Deg 0.18 µg/m3
2023-01-09 19:00 10.18 µg/m3 0.1 µg/m3 82.43 µg/m3 29.15 µg/m3 8.51 µg/m3 16.42 °C 84.23 % 1,010.54 mbar 3.95 m/s 258.05 Deg 0.27 µg/m3
2023-01-09 18:00 15.01 µg/m3 0.08 µg/m3 80 µg/m3 27.42 µg/m3 10.48 µg/m3 16.5 °C 81.92 % 1,010.59 mbar 3.79 m/s 270.93 Deg 0.39 µg/m3
2023-01-09 17:00 13.05 µg/m3 0.1 µg/m3 79.35 µg/m3 28.5 µg/m3 11.57 µg/m3 16.99 °C 78.3 % 1,010.32 mbar 4.06 m/s 275.85 Deg 0.68 µg/m3
2023-01-09 16:00 11.53 µg/m3 0.1 µg/m3 80.62 µg/m3 32.37 µg/m3 6.05 µg/m3 17.42 °C 72.73 % 1,010.37 mbar 4.42 m/s 274.63 Deg 1.67 µg/m3
2023-01-09 15:00 9.26 µg/m3 0.1 µg/m3 82.37 µg/m3 36.82 µg/m3 6.57 µg/m3 17.62 °C 69.45 % 1,010.57 mbar 5.11 m/s 267.03 Deg 1.26 µg/m3
2023-01-09 14:00 8.15 µg/m3 0.11 µg/m3 81.07 µg/m3 36.52 µg/m3 6.04 µg/m3 18.02 °C 68.72 % 1,011.13 mbar 4.33 m/s 246.28 Deg 1.48 µg/m3
2023-01-09 13:00 7.42 µg/m3 0.11 µg/m3 81.05 µg/m3 30.94 µg/m3 6.92 µg/m3 17.91 °C 68.57 % 1,011.95 mbar 4.88 m/s 234.52 Deg 1.72 µg/m3
2023-01-09 12:00 6.91 µg/m3 0.1 µg/m3 81.74 µg/m3 26.8 µg/m3 5.31 µg/m3 17.57 °C 70.07 % 1,012.97 mbar 4.93 m/s 240.37 Deg 1.12 µg/m3
2023-01-09 11:00 7.74 µg/m3 0.11 µg/m3 80.95 µg/m3 31.68 µg/m3 7.13 µg/m3 17.35 °C 69.19 % 1,013.70 mbar 5.12 m/s 243.18 Deg 1.16 µg/m3
2023-01-09 10:00 8.99 µg/m3 0.09 µg/m3 75.6 µg/m3 33 µg/m3 10.27 µg/m3 17.05 °C 70.04 % 1,014.00 mbar 3.8 m/s 250.77 Deg 1.38 µg/m3
2023-01-09 09:00 15.99 µg/m3 0.11 µg/m3 65.43 µg/m3 24.03 µg/m3 6.47 µg/m3 16.21 °C 72.7 % 1,013.97 mbar 2.97 m/s 237.08 Deg 2.95 µg/m3
2023-01-09 08:00 20.55 µg/m3 0.15 µg/m3 59.87 µg/m3 26.02 µg/m3 5.07 µg/m3 15.2 °C 74.91 % 1,014.52 mbar 2.67 m/s 248 Deg 2.64 µg/m3
2023-01-09 07:00 20.3 µg/m3 0.12 µg/m3 58.75 µg/m3 22.12 µg/m3 5.94 µg/m3 14.76 °C 79.25 % 1,014.56 mbar 2.39 m/s 252.32 Deg 1.36 µg/m3
2023-01-09 06:00 11.56 µg/m3 0.1 µg/m3 69.41 µg/m3 11.24 µg/m3 6.32 µg/m3 14.74 °C 82.51 % 1,014.61 mbar 2.21 m/s 249.05 Deg 0.29 µg/m3
2023-01-09 05:00 4.49 µg/m3 0.12 µg/m3 77.42 µg/m3 8.51 µg/m3 6.62 µg/m3 14.45 °C 83.17 % 1,014.75 mbar 1.96 m/s 246.15 Deg -0.08 µg/m3
2023-01-09 04:00 3.04 µg/m3 0.12 µg/m3 75.39 µg/m3 9.01 µg/m3 6.72 µg/m3 14.04 °C 84.68 % 1,014.98 mbar 1.83 m/s 240.43 Deg -0.14 µg/m3
2023-01-09 03:00 2.2 µg/m3 0.11 µg/m3 76.76 µg/m3 11.05 µg/m3 8.39 µg/m3 14.37 °C 81.25 % 1,015.82 mbar 1.9 m/s 253.25 Deg -0.18 µg/m3
2023-01-09 02:00 2.94 µg/m3 0.1 µg/m3 77.76 µg/m3 12.99 µg/m3 6.71 µg/m3 14.56 °C 79.88 % 1,016.47 mbar 1.7 m/s 271.7 Deg -0.15 µg/m3
2023-01-09 01:00 8.53 µg/m3 0.14 µg/m3 73.61 µg/m3 15.66 µg/m3 8.25 µg/m3 14.41 °C 80.81 % 1,016.93 mbar 1.66 m/s 280.52 Deg -0.02 µg/m3
2023-01-09 00:00 7.92 µg/m3 0.15 µg/m3 72.65 µg/m3 20.31 µg/m3 11.98 µg/m3 14.42 °C 81.17 % 1,017.20 mbar 1.71 m/s 279.82 Deg -0.01 µg/m3
2023-01-08 23:00 9.75 µg/m3 0.17 µg/m3 68.63 µg/m3 33.03 µg/m3 11.43 µg/m3 14.51 °C 82.22 % 1,017.26 mbar 1.62 m/s 279.97 Deg 0.31 µg/m3
2023-01-08 22:00 35.02 µg/m3 0.2 µg/m3 46 µg/m3 39.92 µg/m3 13.12 µg/m3 14.52 °C 83.09 % 1,017.36 mbar 1.47 m/s 278.9 Deg 1.41 µg/m3
2023-01-08 21:00 40 µg/m3 0.23 µg/m3 32.79 µg/m3 29.16 µg/m3 9.96 µg/m3 14.1 °C 84.65 % 1,017.41 mbar 1.23 m/s 299.5 Deg 3.2 µg/m3
2023-01-08 20:00 46.26 µg/m3 0.26 µg/m3 27.74 µg/m3 20.19 µg/m3 7.45 µg/m3 14.25 °C 86.22 % 1,017.19 mbar 1.36 m/s 297.42 Deg 5.38 µg/m3
2023-01-08 19:00 48.34 µg/m3 0.24 µg/m3 27.45 µg/m3 10.09 µg/m3 4.24 µg/m3 14.65 °C 86.69 % 1,016.83 mbar 1.21 m/s 299.52 Deg 4.65 µg/m3
2023-01-08 18:00 36.99 µg/m3 0.19 µg/m3 40.52 µg/m3 7.98 µg/m3 4.64 µg/m3 15.29 °C 83.56 % 1,016.50 mbar 1.17 m/s 308.58 Deg 3.39 µg/m3
2023-01-08 17:00 15.74 µg/m3 0.1 µg/m3 65.98 µg/m3 8.57 µg/m3 4.96 µg/m3 16.38 °C 76.95 % 1,016.33 mbar 2.16 m/s 301.55 Deg 1.56 µg/m3
2023-01-08 16:00 10.45 µg/m3 0.13 µg/m3 71.26 µg/m3 9.85 µg/m3 4.45 µg/m3 17.27 °C 73.3 % 1,016.24 mbar 2.91 m/s 301.27 Deg 1.44 µg/m3
2023-01-08 15:00 11.62 µg/m3 0.16 µg/m3 66.46 µg/m3 9.36 µg/m3 6.02 µg/m3 16.94 °C 77.97 % 1,016.19 mbar 2.33 m/s 263.77 Deg 1.85 µg/m3
2023-01-08 14:00 8.53 µg/m3 0.11 µg/m3 71.25 µg/m3 12.07 µg/m3 5.91 µg/m3 17.16 °C 74.84 % 1,016.29 mbar 2.55 m/s 180 Deg 1.22 µg/m3
2023-01-08 13:00 8.61 µg/m3 0.14 µg/m3 70.02 µg/m3 17.21 µg/m3 7.79 µg/m3 17.37 °C 69.67 % 1,016.85 mbar 2.33 m/s 95.6 Deg 1.91 µg/m3
2023-01-08 12:00 10.2 µg/m3 0.16 µg/m3 63.99 µg/m3 24.2 µg/m3 11.68 µg/m3 17.2 °C 71.77 % 1,017.59 mbar 2.27 m/s 348.78 Deg 2.4 µg/m3
2023-01-08 11:00 15.48 µg/m3 0.24 µg/m3 55.9 µg/m3 33.21 µg/m3 6.27 µg/m3 16.8 °C 78.52 % 1,017.89 mbar 1.98 m/s 351.43 Deg 3.96 µg/m3
2023-01-08 10:00 27.42 µg/m3 0.36 µg/m3 39.3 µg/m3 26.24 µg/m3 5.52 µg/m3 15.93 °C 82.96 % 1,017.77 mbar 1.38 m/s 304 Deg 8.22 µg/m3
2023-01-08 09:00 37.81 µg/m3 0.38 µg/m3 25.74 µg/m3 13.52 µg/m3 5.71 µg/m3 13.89 °C 88.39 % 1,017.44 mbar 1.57 m/s 306.23 Deg 12.38 µg/m3
2023-01-08 08:00 37.2 µg/m3 0.26 µg/m3 24.57 µg/m3 11.54 µg/m3 5.57 µg/m3 12.84 °C 92.96 % 1,017.32 mbar 1.62 m/s 310.45 Deg 6.23 µg/m3
2023-01-08 07:00 31.65 µg/m3 0.19 µg/m3 31.41 µg/m3 16.16 µg/m3 7.3 µg/m3 12.82 °C 91.54 % 1,017.01 mbar 2.02 m/s 302.63 Deg 2.1 µg/m3
2023-01-08 06:00 12.04 µg/m3 0.15 µg/m3 48.64 µg/m3 10.09 µg/m3 7.8 µg/m3 12.8 °C 90.95 % 1,016.76 mbar 1.81 m/s 302.4 Deg 0.28 µg/m3
2023-01-08 05:00 8.26 µg/m3 0.16 µg/m3 52.39 µg/m3 10.17 µg/m3 9.59 µg/m3 12.89 °C 89.99 % 1,016.66 mbar 1.79 m/s 302.15 Deg 0.01 µg/m3
2023-01-08 04:00 8.1 µg/m3 0.16 µg/m3 50.62 µg/m3 14.54 µg/m3 9.23 µg/m3 12.78 °C 94.67 % 1,016.83 mbar 1.94 m/s 297.72 Deg 0.05 µg/m3
2023-01-08 03:00 11.85 µg/m3 0.2 µg/m3 42.96 µg/m3 16.71 µg/m3 14.3 µg/m3 12.87 °C 94.5 % 1,016.97 mbar 1.56 m/s 301.8 Deg 0.11 µg/m3
2023-01-08 02:00 17.1 µg/m3 0.22 µg/m3 40.1 µg/m3 23.33 µg/m3 11.9 µg/m3 13 °C 92.69 % 1,017.04 mbar 1.45 m/s 309.63 Deg 0.3 µg/m3
2023-01-08 01:00 25.43 µg/m3 0.26 µg/m3 39.15 µg/m3 38.77 µg/m3 16.89 µg/m3 13.21 °C 91.81 % 1,017.30 mbar 1.89 m/s 294.9 Deg 1.74 µg/m3
2023-01-08 00:00 33.88 µg/m3 0.25 µg/m3 39.89 µg/m3 52.38 µg/m3 20.86 µg/m3 13.91 °C 89.44 % 1,017.63 mbar 1.68 m/s 292.47 Deg 2.33 µg/m3
2023-01-07 23:00 32.49 µg/m3 0.28 µg/m3 39.03 µg/m3 50.48 µg/m3 22.42 µg/m3 14.15 °C 87.77 % 1,017.79 mbar 1.64 m/s 291.58 Deg 1.47 µg/m3
2023-01-07 22:00 51.67 µg/m3 0.36 µg/m3 22.35 µg/m3 50.44 µg/m3 14.79 µg/m3 13.84 °C 89.06 % 1,017.74 mbar 1.62 m/s 295.7 Deg 4.8 µg/m3
2023-01-07 21:00 74.98 µg/m3 0.61 µg/m3 5.74 µg/m3 58.92 µg/m3 20 µg/m3 13.91 °C 89.08 % 1,017.67 mbar 1.44 m/s 297.93 Deg 22.75 µg/m3
2023-01-07 20:00 74.53 µg/m3 0.55 µg/m3 10.47 µg/m3 34.97 µg/m3 11.02 µg/m3 14.66 °C 85.35 % 1,017.42 mbar 0.77 m/s 331.1 Deg 24.43 µg/m3
2023-01-07 19:00 53.2 µg/m3 0.3 µg/m3 30.35 µg/m3 28.24 µg/m3 6.1 µg/m3 14.75 °C 83.52 % 1,017.08 mbar 1.05 m/s 178.75 Deg 9.94 µg/m3
2023-01-07 18:00 36.65 µg/m3 0.18 µg/m3 47.27 µg/m3 15.63 µg/m3 6.99 µg/m3 15.05 °C 82.94 % 1,016.65 mbar 1.04 m/s 103.98 Deg 2.6 µg/m3
2023-01-07 17:00 20.56 µg/m3 0.13 µg/m3 66.14 µg/m3 14.41 µg/m3 6.99 µg/m3 15.85 °C 78.11 % 1,016.40 mbar 1.35 m/s 33.7 Deg 1.38 µg/m3
2023-01-07 16:00 8.19 µg/m3 0.1 µg/m3 77.82 µg/m3 19.67 µg/m3 9.21 µg/m3 16.19 °C 77.38 % 1,016.22 mbar 1.44 m/s 39.42 Deg 0.53 µg/m3
2023-01-07 15:00 9.05 µg/m3 0.1 µg/m3 75.95 µg/m3 29.06 µg/m3 10.95 µg/m3 16.28 °C 80.88 % 1,016.13 mbar 1.85 m/s 29.33 Deg 0.97 µg/m3
2023-01-07 14:00 7.81 µg/m3 0.12 µg/m3 73.82 µg/m3 36.04 µg/m3 2.88 µg/m3 16.39 °C 84.11 % 1,016.30 mbar 1.3 m/s 221.88 Deg 0.96 µg/m3
2023-01-07 13:00 4.37 µg/m3 0.48 µg/m3 -445.31 µg/m3 19.09 µg/m3 5.52 µg/m3 15.74 °C 86.8 % 1,016.89 mbar 1.92 m/s 195.98 Deg 37.58 µg/m3
2023-01-07 09:00 47.75 µg/m3 0.47 µg/m3 8.17 µg/m3 33.37 µg/m3 13.44 µg/m3 14.1 °C 89.74 % 1,017.46 mbar 1.66 m/s 40.2 Deg 23.81 µg/m3
2023-01-07 08:00 48.82 µg/m3 0.4 µg/m3 25.88 µg/m3 19.68 µg/m3 12.78 µg/m3 13.87 °C 90.07 % 1,017.37 mbar 1.53 m/s 38.25 Deg 19.46 µg/m3
2023-01-07 07:00 36.72 µg/m3 0.27 µg/m3 34.5 µg/m3 19.53 µg/m3 8.15 µg/m3 13.63 °C 90.23 % 1,017.25 mbar 1.57 m/s 34.63 Deg 7.46 µg/m3
2023-01-07 06:00 23 µg/m3 0.23 µg/m3 42.38 µg/m3 32.95 µg/m3 11.25 µg/m3 13.63 °C 89.98 % 1,017.09 mbar 1.4 m/s 7.43 Deg 2.74 µg/m3
2023-01-07 05:00 13.24 µg/m3 0.18 µg/m3 53.15 µg/m3 17.23 µg/m3 15.02 µg/m3 14.17 °C 86.16 % 1,016.95 mbar 1.05 m/s 41.35 Deg 0.6 µg/m3
2023-01-07 04:00 11.59 µg/m3 0.24 µg/m3 54.57 µg/m3 15.73 µg/m3 10.44 µg/m3 14.08 °C 85.74 % 1,017.27 mbar 1.13 m/s 45.73 Deg 0.17 µg/m3
2023-01-07 03:00 12.88 µg/m3 0.27 µg/m3 53.48 µg/m3 20.7 µg/m3 13.33 µg/m3 14.06 °C 87.36 % 1,017.45 mbar 1.4 m/s 40.25 Deg 0.32 µg/m3
2023-01-07 02:00 36.78 µg/m3 0.29 µg/m3 33.45 µg/m3 23.21 µg/m3 12.35 µg/m3 13.96 °C 89.26 % 1,017.48 mbar 1.27 m/s 103.92 Deg 1.49 µg/m3
2023-01-07 01:00 49.33 µg/m3 0.35 µg/m3 11.63 µg/m3 29.37 µg/m3 17.51 µg/m3 13.48 °C 89.13 % 1,017.70 mbar 1.27 m/s 319.18 Deg 4.01 µg/m3
2023-01-07 00:00 40.36 µg/m3 0.3 µg/m3 22.91 µg/m3 45.54 µg/m3 16.9 µg/m3 13.54 °C 87.86 % 1,018.09 mbar 1.43 m/s 311.85 Deg 2.22 µg/m3
2023-01-06 23:00 46.89 µg/m3 0.4 µg/m3 19.18 µg/m3 61.63 µg/m3 20.34 µg/m3 13.59 °C 89.19 % 1,018.29 mbar 1.75 m/s 305.13 Deg 4.35 µg/m3
2023-01-06 22:00 68.41 µg/m3 0.72 µg/m3 4.55 µg/m3 55.88 µg/m3 20.6 µg/m3 13.81 °C 89.49 % 1,018.15 mbar 1.61 m/s 303.6 Deg 26.57 µg/m3
2023-01-06 21:00 76.23 µg/m3 0.95 µg/m3 4.53 µg/m3 50.42 µg/m3 14.89 µg/m3 14.29 °C 87.43 % 1,018.12 mbar 1.39 m/s 310.33 Deg 50.88 µg/m3
2023-01-06 20:00 67.17 µg/m3 0.66 µg/m3 15.38 µg/m3 47.2 µg/m3 9.98 µg/m3 15.13 °C 82.87 % 1,017.87 mbar 0.76 m/s 186.63 Deg 16.93 µg/m3
2023-01-06 19:00 68.87 µg/m3 0.58 µg/m3 14.53 µg/m3 31.81 µg/m3 14.37 µg/m3 15.22 °C 82.79 % 1,017.57 mbar 0.73 m/s 14.83 Deg 18.68 µg/m3
2023-01-06 18:00 57.73 µg/m3 0.31 µg/m3 25.29 µg/m3 24.79 µg/m3 8.44 µg/m3 15.52 °C 81.69 % 1,017.17 mbar 0.75 m/s 32.66 Deg 6.79 µg/m3
2023-01-06 17:00 22.02 µg/m3 0.16 µg/m3 65.83 µg/m3 18.38 µg/m3 10.59 µg/m3 16.19 °C 76.21 % 1,017.02 mbar 1.44 m/s 31.57 Deg 1.96 µg/m3
2023-01-06 16:00 14.76 µg/m3 0.17 µg/m3 73.29 µg/m3 17.48 µg/m3 14.51 µg/m3 16.91 °C 69.91 % 1,016.90 mbar 1.94 m/s 37.03 Deg 2.35 µg/m3
2023-01-06 15:00 11.64 µg/m3 0.19 µg/m3 75.84 µg/m3 11.71 µg/m3 6.28 µg/m3 17.13 °C 67.27 % 1,016.76 mbar 2.29 m/s 27.83 Deg 1.63 µg/m3
2023-01-06 14:00 19.35 µg/m3 0.27 µg/m3 73.14 µg/m3 14.86 µg/m3 7.88 µg/m3 17.51 °C 65.84 % 1,016.81 mbar 1.88 m/s 31.3 Deg 8.56 µg/m3
2023-01-06 13:00 10.24 µg/m3 0.19 µg/m3 72.46 µg/m3 23 µg/m3 8.5 µg/m3 17.48 °C 65.29 % 1,017.25 mbar 1.76 m/s 33.07 Deg 1.89 µg/m3
2023-01-06 12:00 13.49 µg/m3 0.24 µg/m3 67.3 µg/m3 41.17 µg/m3 9.23 µg/m3 17.46 °C 65.7 % 1,017.87 mbar 1.43 m/s 175.25 Deg 2.72 µg/m3
2023-01-06 11:00 15.99 µg/m3 0.3 µg/m3 60.72 µg/m3 44.76 µg/m3 12.1 µg/m3 16.75 °C 73.29 % 1,018.49 mbar 1.62 m/s 24.98 Deg 4.3 µg/m3
2023-01-06 10:00 60.06 µg/m3 0.82 µg/m3 21.67 µg/m3 53.07 µg/m3 18.64 µg/m3 16.11 °C 80.44 % 1,018.48 mbar 0.84 m/s 93.92 Deg 38.44 µg/m3
2023-01-06 09:00 68.37 µg/m3 0.71 µg/m3 13.47 µg/m3 37.84 µg/m3 9.17 µg/m3 14.51 °C 87.71 % 1,018.17 mbar 0.98 m/s 315.59 Deg 39.82 µg/m3
2023-01-06 08:00 73.95 µg/m3 0.7 µg/m3 6.17 µg/m3 20.7 µg/m3 6.67 µg/m3 13.23 °C 91.3 % 1,017.99 mbar 1.54 m/s 305.77 Deg 38.64 µg/m3
2023-01-06 07:00 53.85 µg/m3 0.38 µg/m3 17.61 µg/m3 22.96 µg/m3 9.76 µg/m3 12.92 °C 87.6 % 1,017.74 mbar 1.72 m/s 304.38 Deg 11.4 µg/m3
2023-01-06 06:00 25.98 µg/m3 0.22 µg/m3 41.12 µg/m3 14.67 µg/m3 12.46 µg/m3 13.05 °C 83.92 % 1,017.51 mbar 1.61 m/s 303.68 Deg 2.01 µg/m3
2023-01-06 05:00 9 µg/m3 0.19 µg/m3 59.43 µg/m3 12.08 µg/m3 13.07 µg/m3 13.31 °C 83.66 % 1,017.33 mbar 1.58 m/s 292.52 Deg 0.36 µg/m3
2023-01-06 04:00 7.5 µg/m3 0.16 µg/m3 60.93 µg/m3 16.82 µg/m3 5.78 µg/m3 13.42 °C 85.09 % 1,017.64 mbar 1.61 m/s 290.53 Deg 0.09 µg/m3
2023-01-06 03:00 10.43 µg/m3 0.17 µg/m3 56.41 µg/m3 20.23 µg/m3 6.6 µg/m3 13.05 °C 88.11 % 1,017.90 mbar 1.78 m/s 293.5 Deg 0.27 µg/m3
2023-01-06 02:00 12.64 µg/m3 0.22 µg/m3 55.22 µg/m3 22.84 µg/m3 9.42 µg/m3 12.83 °C 90.3 % 1,018.04 mbar 1.68 m/s 303.32 Deg 0.19 µg/m3
2023-01-06 01:00 15.55 µg/m3 0.21 µg/m3 58.07 µg/m3 25.69 µg/m3 12.17 µg/m3 12.92 °C 86.88 % 1,018.24 mbar 1.69 m/s 306.13 Deg 0.32 µg/m3
2023-01-06 00:00 22.25 µg/m3 0.26 µg/m3 50.09 µg/m3 30.14 µg/m3 18.02 µg/m3 12.86 °C 84.92 % 1,018.56 mbar 1.58 m/s 312.55 Deg 0.47 µg/m3
2023-01-05 23:00 30.81 µg/m3 0.29 µg/m3 44.65 µg/m3 45.59 µg/m3 18.47 µg/m3 13.18 °C 83.65 % 1,018.74 mbar 1.65 m/s 306.53 Deg 1.3 µg/m3
2023-01-05 22:00 51.55 µg/m3 0.33 µg/m3 29.38 µg/m3 44.93 µg/m3 16.63 µg/m3 13.76 °C 81.8 % 1,018.66 mbar 1.54 m/s 300.12 Deg 3.65 µg/m3
2023-01-05 21:00 58.41 µg/m3 0.3 µg/m3 28.46 µg/m3 30.44 µg/m3 11.31 µg/m3 14.44 °C 79.34 % 1,018.47 mbar 1.19 m/s 286.8 Deg 5.17 µg/m3
2023-01-05 20:00 75.68 µg/m3 0.27 µg/m3 13.87 µg/m3 34.03 µg/m3 16.09 µg/m3 14.31 °C 79.56 % 1,018.41 mbar 1.27 m/s 292.82 Deg 9.05 µg/m3
2023-01-05 19:00 75.04 µg/m3 0.37 µg/m3 13.44 µg/m3 31.11 µg/m3 7.66 µg/m3 14.53 °C 78.77 % 1,018.22 mbar 1.2 m/s 294.62 Deg 11.96 µg/m3
2023-01-05 18:00 58.82 µg/m3 0.22 µg/m3 29.55 µg/m3 28.3 µg/m3 5.42 µg/m3 15.13 °C 75.78 % 1,017.94 mbar 0.93 m/s 298.95 Deg 4.95 µg/m3
2023-01-05 17:00 17.68 µg/m3 0.09 µg/m3 75.31 µg/m3 21.25 µg/m3 6.54 µg/m3 16.27 °C 73.26 % 1,017.86 mbar 0.84 m/s 203.05 Deg 0.83 µg/m3
2023-01-05 16:00 15.9 µg/m3 0.13 µg/m3 79.75 µg/m3 27.53 µg/m3 5.27 µg/m3 16.18 °C 73.23 % 1,017.91 mbar 1.62 m/s 6.1 Deg 1.81 µg/m3
2023-01-05 15:00 16.46 µg/m3 0.1 µg/m3 79.82 µg/m3 19.05 µg/m3 5.33 µg/m3 16.17 °C 72.66 % 1,017.92 mbar 1.71 m/s 6.2 Deg 2.43 µg/m3
2023-01-05 14:00 12.45 µg/m3 0.15 µg/m3 80.01 µg/m3 17.63 µg/m3 6.23 µg/m3 16.43 °C 70.26 % 1,018.09 mbar 2.01 m/s 96.93 Deg 2.02 µg/m3
2023-01-05 13:00 11.72 µg/m3 0.15 µg/m3 80.23 µg/m3 28.02 µg/m3 7.61 µg/m3 17.24 °C 67.01 % 1,018.56 mbar 2.24 m/s 88.35 Deg 2.11 µg/m3
2023-01-05 12:00 18.69 µg/m3 0.21 µg/m3 70.61 µg/m3 34.12 µg/m3 8.91 µg/m3 16.96 °C 66.74 % 1,019.45 mbar 1.44 m/s 303.12 Deg 4.03 µg/m3
2023-01-05 11:00 30.15 µg/m3 0.36 µg/m3 58.34 µg/m3 45.69 µg/m3 12.77 µg/m3 16.78 °C 71.05 % 1,019.96 mbar 1.32 m/s 317.95 Deg 7.19 µg/m3
2023-01-05 10:00 54.58 µg/m3 0.6 µg/m3 33.59 µg/m3 61.89 µg/m3 17.47 µg/m3 15.96 °C 77.68 % 1,020.12 mbar 1.19 m/s 307.02 Deg 20.68 µg/m3
2023-01-05 09:00 74.21 µg/m3 0.74 µg/m3 11.56 µg/m3 42.93 µg/m3 17.65 µg/m3 14.26 °C 85.69 % 1,020.08 mbar 1.29 m/s 304.08 Deg 48.36 µg/m3
2023-01-05 08:00 72.59 µg/m3 0.59 µg/m3 5.62 µg/m3 30.39 µg/m3 10.44 µg/m3 13.06 °C 92.96 % 1,020.27 mbar 1.35 m/s 308.75 Deg 32.5 µg/m3
2023-01-05 07:00 56.5 µg/m3 0.27 µg/m3 16.76 µg/m3 19.74 µg/m3 10.9 µg/m3 12.93 °C 94.91 % 1,020.04 mbar 1.66 m/s 309.18 Deg 9.71 µg/m3
2023-01-05 06:00 26.91 µg/m3 0.16 µg/m3 40.11 µg/m3 21.56 µg/m3 7.02 µg/m3 13.1 °C 94.92 % 1,019.61 mbar 1.62 m/s 306.12 Deg 2.67 µg/m3
2023-01-05 05:00 12.84 µg/m3 0.1 µg/m3 49.88 µg/m3 16.23 µg/m3 7.64 µg/m3 13.18 °C 96.1 % 1,019.72 mbar 1.8 m/s 304.88 Deg 0.43 µg/m3
2023-01-05 04:00 11.16 µg/m3 0.13 µg/m3 51.35 µg/m3 16.85 µg/m3 9.26 µg/m3 13.49 °C 95.74 % 1,020.12 mbar 1.55 m/s 306.82 Deg 0.25 µg/m3
2023-01-05 03:00 8.53 µg/m3 0.12 µg/m3 59.38 µg/m3 15.72 µg/m3 11.6 µg/m3 13.96 °C 93.85 % 1,020.45 mbar 1.65 m/s 299.42 Deg 0.12 µg/m3
2023-01-05 02:00 13.37 µg/m3 0.16 µg/m3 55.9 µg/m3 18.92 µg/m3 7.58 µg/m3 13.95 °C 94.06 % 1,020.74 mbar 1.56 m/s 294.63 Deg 0.23 µg/m3
2023-01-05 01:00 22.42 µg/m3 0.11 µg/m3 43.9 µg/m3 28.43 µg/m3 11.48 µg/m3 13.94 °C 94.86 % 1,020.98 mbar 1.62 m/s 299.37 Deg 0.61 µg/m3
2023-01-05 00:00 24.9 µg/m3 0.16 µg/m3 43.97 µg/m3 35.69 µg/m3 17.57 µg/m3 14.48 °C 92.72 % 1,021.40 mbar 1.62 m/s 297.58 Deg 0.68 µg/m3
2023-01-04 23:00 34.26 µg/m3 0.2 µg/m3 34.01 µg/m3 34.58 µg/m3 10.13 µg/m3 14.86 °C 93.47 % 1,021.70 mbar 1.43 m/s 289.28 Deg 2.93 µg/m3
2023-01-04 22:00 53.33 µg/m3 0.33 µg/m3 18.53 µg/m3 30.65 µg/m3 14.25 µg/m3 15.11 °C 96.31 % 1,021.67 mbar 1.19 m/s 273.85 Deg 9.08 µg/m3
2023-01-04 21:00 52.85 µg/m3 0.35 µg/m3 18.57 µg/m3 21.17 µg/m3 7.05 µg/m3 15.21 °C 95.66 % 1,021.60 mbar 0.74 m/s 319.53 Deg 17.08 µg/m3
2023-01-04 20:00 29.26 µg/m3 0.17 µg/m3 51.01 µg/m3 24.12 µg/m3 9.4 µg/m3 15.47 °C 93.67 % 1,021.43 mbar 0.34 m/s 189.44 Deg 7.25 µg/m3
2023-01-04 19:00 45.91 µg/m3 0.19 µg/m3 32.41 µg/m3 23.75 µg/m3 12.95 µg/m3 15.89 °C 92.37 % 1,021.27 mbar 0.48 m/s 133.11 Deg 7.73 µg/m3
2023-01-04 18:00 19.4 µg/m3 0.1 µg/m3 56.48 µg/m3 14.91 µg/m3 7.5 µg/m3 16.29 °C 91.24 % 1,021.11 mbar 0.63 m/s 28.06 Deg 0.36 µg/m3
2023-01-04 17:00 19.38 µg/m3 0.09 µg/m3 63.71 µg/m3 18.4 µg/m3 6.58 µg/m3 16.8 °C 88.51 % 1,021.05 mbar 1.26 m/s 122.12 Deg 2.34 µg/m3
2023-01-04 16:00 8.39 µg/m3 0.06 µg/m3 72.42 µg/m3 15.71 µg/m3 6.84 µg/m3 17.04 °C 88.04 % 1,021.10 mbar 1.1 m/s 279.23 Deg 0.5 µg/m3
2023-01-04 15:00 3.15 µg/m3 0.05 µg/m3 73.55 µg/m3 18.76 µg/m3 7.79 µg/m3 16.5 °C 90.48 % 1,021.14 mbar 1.82 m/s 124.93 Deg 0.09 µg/m3
2023-01-04 14:00 6.35 µg/m3 0.08 µg/m3 72.51 µg/m3 27.5 µg/m3 8.05 µg/m3 16.89 °C 88.89 % 1,021.39 mbar 0.97 m/s 199.62 Deg 0.53 µg/m3
2023-01-04 13:00 12.46 µg/m3 0.14 µg/m3 65.55 µg/m3 22.29 µg/m3 7.49 µg/m3 16.71 °C 90.01 % 1,021.95 mbar 1.4 m/s 62.9 Deg 1.8 µg/m3
2023-01-04 12:00 14.34 µg/m3 0.16 µg/m3 60.83 µg/m3 22.37 µg/m3 10.67 µg/m3 17.25 °C 87.57 % 1,022.52 mbar 1.72 m/s 115.77 Deg 2.42 µg/m3
2023-01-04 11:00 15.57 µg/m3 0.21 µg/m3 57.54 µg/m3 24.9 µg/m3 17.52 µg/m3 17.17 °C 88.3 % 1,023.06 mbar 1.23 m/s 179.38 Deg 3.46 µg/m3
2023-01-04 10:00 50.86 µg/m3 0.54 µg/m3 21.78 µg/m3 35.59 µg/m3 12.64 µg/m3 16.63 °C 94.74 % 1,023.14 mbar 0.88 m/s 258.44 Deg 27.17 µg/m3
2023-01-04 09:00 64.99 µg/m3 0.81 µg/m3 6.55 µg/m3 24.51 µg/m3 13.1 µg/m3 15.78 °C 99.32 % 1,022.89 mbar 0.84 m/s 307.74 Deg 49.05 µg/m3
2023-01-04 08:00 64.44 µg/m3 0.65 µg/m3 2.91 µg/m3 25.83 µg/m3 12.95 µg/m3 15.16 °C 99.9 % 1,022.70 mbar 1.14 m/s 304.67 Deg 42.58 µg/m3
2023-01-04 07:00 52.91 µg/m3 0.23 µg/m3 16.39 µg/m3 16.09 µg/m3 5.99 µg/m3 15.7 °C 99.98 % 1,022.23 mbar 1.52 m/s 335.8 Deg 8.13 µg/m3
2023-01-04 06:00 29.46 µg/m3 0.15 µg/m3 33.17 µg/m3 7.85 µg/m3 7.11 µg/m3 15.87 °C 99.92 % 1,022.07 mbar 1.2 m/s 325.82 Deg 1.94 µg/m3
2023-01-04 05:00 7.72 µg/m3 0.09 µg/m3 63.47 µg/m3 8.08 µg/m3 5.52 µg/m3 16.18 °C 97.75 % 1,021.98 mbar 1.35 m/s 316.76 Deg 0.12 µg/m3
2023-01-04 04:00 3.72 µg/m3 0.11 µg/m3 69.47 µg/m3 9.39 µg/m3 6.51 µg/m3 16.26 °C 95.6 % 1,022.18 mbar 1.47 m/s 252.05 Deg 0.03 µg/m3
2023-01-04 03:00 2.94 µg/m3 0.06 µg/m3 68.14 µg/m3 8.77 µg/m3 6.29 µg/m3 16.04 °C 93.85 % 1,022.52 mbar 1.4 m/s 257.53 Deg -0 µg/m3
2023-01-04 02:00 2.42 µg/m3 0.1 µg/m3 66.57 µg/m3 11.14 µg/m3 8.12 µg/m3 15.67 °C 94.79 % 1,022.76 mbar 1.41 m/s 258.68 Deg -0 µg/m3
2023-01-04 01:00 3.56 µg/m3 0.08 µg/m3 68.25 µg/m3 14.8 µg/m3 8.7 µg/m3 16.09 °C 94.4 % 1,023.02 mbar 1.55 m/s 259.2 Deg 0.01 µg/m3
2023-01-04 00:00 6.25 µg/m3 0.08 µg/m3 62.7 µg/m3 22.72 µg/m3 7.22 µg/m3 16.08 °C 94.57 % 1,023.30 mbar 1.51 m/s 267.47 Deg 0.04 µg/m3
2023-01-03 23:00 8.48 µg/m3 0.1 µg/m3 58.49 µg/m3 21.12 µg/m3 8.24 µg/m3 16.24 °C 93.41 % 1,023.48 mbar 1.46 m/s 256.78 Deg 0.11 µg/m3
2023-01-03 22:00 13.67 µg/m3 0.11 µg/m3 55.9 µg/m3 26.95 µg/m3 9.31 µg/m3 16.41 °C 90.78 % 1,023.45 mbar 1.92 m/s 263.68 Deg 0.2 µg/m3
2023-01-03 21:00 23.97 µg/m3 0.12 µg/m3 47.11 µg/m3 18.22 µg/m3 6.01 µg/m3 16.39 °C 86.67 % 1,023.48 mbar 1.61 m/s 266.15 Deg 0.65 µg/m3
2023-01-03 20:00 32.64 µg/m3 0.13 µg/m3 38.51 µg/m3 20.02 µg/m3 7.8 µg/m3 16.43 °C 84.19 % 1,023.40 mbar 1.4 m/s 260.35 Deg 1.61 µg/m3
2023-01-03 19:00 34.38 µg/m3 0.09 µg/m3 38.51 µg/m3 23.37 µg/m3 3.96 µg/m3 16.66 °C 83.59 % 1,023.19 mbar 1.23 m/s 264.9 Deg 1.13 µg/m3
2023-01-03 18:00 35.56 µg/m3 0.14 µg/m3 38.35 µg/m3 15.57 µg/m3 5.04 µg/m3 17.01 °C 81.68 % 1,022.88 mbar 1.22 m/s 283.03 Deg 3.96 µg/m3
2023-01-03 17:00 16.56 µg/m3 0.07 µg/m3 59.34 µg/m3 13.59 µg/m3 5.95 µg/m3 17.77 °C 76.14 % 1,022.53 mbar 1.95 m/s 266.02 Deg 1.16 µg/m3
2023-01-03 16:00 9.03 µg/m3 0.06 µg/m3 69.21 µg/m3 13.78 µg/m3 4.51 µg/m3 18.41 °C 70.28 % 1,022.21 mbar 2.57 m/s 272.03 Deg 1.03 µg/m3
2023-01-03 15:00 6.81 µg/m3 0.11 µg/m3 72.75 µg/m3 17.19 µg/m3 5.53 µg/m3 18.83 °C 70.37 % 1,022.26 mbar 2.8 m/s 256.02 Deg 1.01 µg/m3
2023-01-03 14:00 4.32 µg/m3 0.11 µg/m3 74.04 µg/m3 15.95 µg/m3 5.67 µg/m3 18.8 °C 69.34 % 1,022.58 mbar 3.07 m/s 230.07 Deg 0.81 µg/m3
2023-01-03 13:00 4.15 µg/m3 0.09 µg/m3 73.96 µg/m3 11.97 µg/m3 5.95 µg/m3 18.78 °C 68.27 % 1,023.08 mbar 3.13 m/s 223.88 Deg 0.77 µg/m3
2023-01-03 12:00 3.11 µg/m3 0.11 µg/m3 74.94 µg/m3 12.29 µg/m3 7.17 µg/m3 18.6 °C 70.28 % 1,023.67 mbar 3.13 m/s 213.1 Deg 0.44 µg/m3
2023-01-03 11:00 6.23 µg/m3 0.1 µg/m3 70.58 µg/m3 17.3 µg/m3 9.04 µg/m3 18.57 °C 69.21 % 1,024.05 mbar 2.33 m/s 219.72 Deg 1.17 µg/m3
2023-01-03 10:00 8.57 µg/m3 0.13 µg/m3 65.78 µg/m3 20.99 µg/m3 14.11 µg/m3 18.16 °C 71.77 % 1,024.14 mbar 1.94 m/s 226.6 Deg 1.4 µg/m3
2023-01-03 09:00 44.42 µg/m3 0.25 µg/m3 40.3 µg/m3 21.04 µg/m3 5.46 µg/m3 17.06 °C 75.4 % 1,024.01 mbar 1.11 m/s 249.82 Deg 10.09 µg/m3
2023-01-03 08:00 41.63 µg/m3 0.19 µg/m3 38.24 µg/m3 12.69 µg/m3 5.19 µg/m3 16.37 °C 76.4 % 1,023.77 mbar 1.39 m/s 256.12 Deg 9.78 µg/m3
2023-01-03 07:00 28.47 µg/m3 0.11 µg/m3 49.42 µg/m3 9.48 µg/m3 5.02 µg/m3 16.21 °C 77.05 % 1,023.53 mbar 1.27 m/s 253.08 Deg 2.52 µg/m3
2023-01-03 06:00 17.17 µg/m3 0.04 µg/m3 55.59 µg/m3 9.89 µg/m3 5.75 µg/m3 16.03 °C 79.41 % 1,023.06 mbar 1.24 m/s 238.35 Deg 0.75 µg/m3
2023-01-03 05:00 4.49 µg/m3 0.06 µg/m3 67.85 µg/m3 10.67 µg/m3 7.87 µg/m3 16.24 °C 77.37 % 1,022.90 mbar 1.32 m/s 239.62 Deg 0.04 µg/m3
2023-01-03 04:00 5.13 µg/m3 0.13 µg/m3 64.54 µg/m3 13.44 µg/m3 8.79 µg/m3 15.95 °C 78.8 % 1,023.00 mbar 1.25 m/s 229.42 Deg 0.04 µg/m3
2023-01-03 03:00 2.4 µg/m3 0.05 µg/m3 66.96 µg/m3 17.01 µg/m3 5.04 µg/m3 16.12 °C 79.19 % 1,023.29 mbar 1.72 m/s 222.1 Deg 0 µg/m3
2023-01-03 02:00 21.66 µg/m3 0.06 µg/m3 53.92 µg/m3 13.65 µg/m3 6.07 µg/m3 16.58 °C 78.24 % 1,023.41 mbar 1.88 m/s 196.13 Deg 0.19 µg/m3
2023-01-03 01:00 26.48 µg/m3 0.03 µg/m3 46.95 µg/m3 11.83 µg/m3 7.71 µg/m3 16.59 °C 79.71 % 1,023.51 mbar 2.13 m/s 186.73 Deg 0.24 µg/m3
2023-01-03 00:00 21.76 µg/m3 0.02 µg/m3 51.85 µg/m3 13.65 µg/m3 10.98 µg/m3 16.86 °C 81.69 % 1,023.69 mbar 2.48 m/s 182.18 Deg 0.15 µg/m3
2023-01-02 23:00 4.92 µg/m3 0.04 µg/m3 68.93 µg/m3 16.18 µg/m3 5 µg/m3 16.8 °C 83.98 % 1,023.76 mbar 2.51 m/s 175.22 Deg 0 µg/m3
2023-01-02 22:00 8.79 µg/m3 0.06 µg/m3 62.1 µg/m3 20.83 µg/m3 6.48 µg/m3 16.63 °C 87.94 % 1,023.76 mbar 1.52 m/s 181.37 Deg 0.06 µg/m3
2023-01-02 21:00 9.67 µg/m3 0.05 µg/m3 59.97 µg/m3 17.82 µg/m3 8.67 µg/m3 16.25 °C 94.67 % 1,023.87 mbar 1.34 m/s 244.87 Deg 0.24 µg/m3
2023-01-02 20:00 13.39 µg/m3 0.08 µg/m3 58.12 µg/m3 13.46 µg/m3 8.65 µg/m3 16.38 °C 97.46 % 1,023.71 mbar 1.27 m/s 170.08 Deg 0.63 µg/m3
2023-01-02 19:00 4.14 µg/m3 0.02 µg/m3 64.85 µg/m3 15.21 µg/m3 6.58 µg/m3 16.1 °C 97.17 % 1,023.62 mbar 1.35 m/s 163.28 Deg -0 µg/m3
2023-01-02 18:00 2.62 µg/m3 0.05 µg/m3 66.68 µg/m3 11.01 µg/m3 6.2 µg/m3 16.22 °C 95.88 % 1,023.33 mbar 1.29 m/s 166.1 Deg -0.02 µg/m3
2023-01-02 17:00 2.07 µg/m3 0.04 µg/m3 67.42 µg/m3 7.73 µg/m3 6.81 µg/m3 16.58 °C 93.96 % 1,023.16 mbar 1.83 m/s 179.52 Deg 0.04 µg/m3
2023-01-02 16:00 1.55 µg/m3 0.02 µg/m3 69.76 µg/m3 7.53 µg/m3 6.59 µg/m3 16.96 °C 90.71 % 1,022.98 mbar 2.63 m/s 165.63 Deg 0.02 µg/m3
2023-01-02 15:00 1.52 µg/m3 0.05 µg/m3 69.43 µg/m3 8.55 µg/m3 9.03 µg/m3 17.01 °C 86.74 % 1,022.92 mbar 2.77 m/s 151.88 Deg 0.04 µg/m3
2023-01-02 14:00 1.81 µg/m3 0.03 µg/m3 69.69 µg/m3 13.44 µg/m3 6.78 µg/m3 17.41 °C 82.89 % 1,023.06 mbar 3.34 m/s 146.73 Deg 0.14 µg/m3
2023-01-02 13:00 1.68 µg/m3 0.07 µg/m3 69.38 µg/m3 17.17 µg/m3 6.1 µg/m3 17.63 °C 81.73 % 1,023.63 mbar 3.02 m/s 188.63 Deg 0.14 µg/m3
2023-01-02 12:00 2.08 µg/m3 0.08 µg/m3 67.78 µg/m3 12.08 µg/m3 7.85 µg/m3 17.52 °C 82.51 % 1,024.33 mbar 3.39 m/s 142.88 Deg 0.24 µg/m3
2023-01-02 11:00 1.82 µg/m3 0.06 µg/m3 67.31 µg/m3 9.19 µg/m3 6.7 µg/m3 17.26 °C 84.4 % 1,024.88 mbar 3.74 m/s 119.5 Deg 0.13 µg/m3
2023-01-02 10:00 1.61 µg/m3 0.08 µg/m3 65.4 µg/m3 10.34 µg/m3 6.01 µg/m3 16.68 °C 88.42 % 1,024.97 mbar 3.63 m/s 123.22 Deg 0.07 µg/m3
2023-01-02 09:00 2.25 µg/m3 0.09 µg/m3 62.86 µg/m3 14.4 µg/m3 7.58 µg/m3 16.09 °C 92.76 % 1,024.62 mbar 2.7 m/s 174.52 Deg 0.07 µg/m3
2023-01-02 08:00 5.06 µg/m3 0.11 µg/m3 60.41 µg/m3 18.49 µg/m3 6.23 µg/m3 15.41 °C 94.01 % 1,024.36 mbar 1.81 m/s 243.87 Deg 0.14 µg/m3
2023-01-02 07:00 5.55 µg/m3 0.06 µg/m3 61.1 µg/m3 13.46 µg/m3 7 µg/m3 15.29 °C 92.71 % 1,023.99 mbar 1.66 m/s 291.18 Deg 0.06 µg/m3
2023-01-02 06:00 4.8 µg/m3 0.06 µg/m3 62.08 µg/m3 9.82 µg/m3 8.49 µg/m3 15.17 °C 92.9 % 1,023.57 mbar 1.33 m/s 241.28 Deg 0.05 µg/m3
2023-01-02 05:00 1.61 µg/m3 0.11 µg/m3 65.18 µg/m3 12.13 µg/m3 10.63 µg/m3 15.16 °C 92.17 % 1,023.45 mbar 1.72 m/s 242.95 Deg -0.04 µg/m3
2023-01-02 04:00 2.46 µg/m3 0.1 µg/m3 65.59 µg/m3 15.96 µg/m3 8.35 µg/m3 15.26 °C 91.99 % 1,023.56 mbar 1.46 m/s 212.48 Deg -0.02 µg/m3
2023-01-02 03:00 1.9 µg/m3 0.08 µg/m3 66.96 µg/m3 14.41 µg/m3 6.34 µg/m3 15.07 °C 91.69 % 1,023.82 mbar 1.22 m/s 168.17 Deg -0.03 µg/m3
2023-01-02 02:00 3.37 µg/m3 0.07 µg/m3 67.37 µg/m3 21.7 µg/m3 8.73 µg/m3 15.05 °C 89.93 % 1,023.94 mbar 1.23 m/s 103.63 Deg 0.03 µg/m3
2023-01-02 01:00 6.89 µg/m3 0.13 µg/m3 65.16 µg/m3 27.15 µg/m3 10.42 µg/m3 14.97 °C 87.73 % 1,024.21 mbar 1.23 m/s 53.78 Deg 0.13 µg/m3
2023-01-02 00:00 8.18 µg/m3 0.12 µg/m3 67.7 µg/m3 17.1 µg/m3 14.03 µg/m3 14.98 °C 86.92 % 1,024.53 mbar 1.29 m/s 50.05 Deg 0.17 µg/m3
2023-01-01 23:00 10.16 µg/m3 0.09 µg/m3 66.16 µg/m3 19.8 µg/m3 8.72 µg/m3 15.16 °C 85.12 % 1,024.77 mbar 1.24 m/s 51.98 Deg 0.16 µg/m3
2023-01-01 22:00 10.49 µg/m3 0.13 µg/m3 67.46 µg/m3 32.29 µg/m3 9.45 µg/m3 15.25 °C 84.73 % 1,024.73 mbar 1.43 m/s 34.17 Deg 0.3 µg/m3
2023-01-01 21:00 11.49 µg/m3 0.13 µg/m3 67.09 µg/m3 24.45 µg/m3 14.45 µg/m3 15.4 °C 86.68 % 1,024.62 mbar 1.63 m/s 39.25 Deg 0.36 µg/m3
2023-01-01 20:00 16.79 µg/m3 0.13 µg/m3 59.99 µg/m3 31.4 µg/m3 7.71 µg/m3 15.33 °C 89.59 % 1,024.33 mbar 1.43 m/s 40.8 Deg 0.74 µg/m3
2023-01-01 19:00 19.65 µg/m3 0.13 µg/m3 55.54 µg/m3 22.93 µg/m3 10.37 µg/m3 15.39 °C 89.48 % 1,024.26 mbar 1.43 m/s 41.25 Deg 1.31 µg/m3
2023-01-01 18:00 22.57 µg/m3 0.18 µg/m3 53.19 µg/m3 25.53 µg/m3 12.2 µg/m3 15.59 °C 89.73 % 1,023.92 mbar 1.14 m/s 29.48 Deg 1.21 µg/m3
2023-01-01 17:00 8.67 µg/m3 0.09 µg/m3 67.87 µg/m3 17.55 µg/m3 9.24 µg/m3 16.17 °C 86.58 % 1,023.47 mbar 1.12 m/s 187.83 Deg 0.2 µg/m3
2023-01-01 16:00 6.01 µg/m3 0.09 µg/m3 75.71 µg/m3 17.18 µg/m3 7.49 µg/m3 16.75 °C 82.64 % 1,023.33 mbar 1.6 m/s 323.82 Deg 0.68 µg/m3
2023-01-01 15:00 3.68 µg/m3 0.14 µg/m3 77.38 µg/m3 12.77 µg/m3 5.7 µg/m3 16.97 °C 84.46 % 1,023.29 mbar 2.18 m/s 232.05 Deg 0.19 µg/m3
2023-01-01 14:00 2.86 µg/m3 0.08 µg/m3 77.04 µg/m3 15.02 µg/m3 6.46 µg/m3 17.48 °C 82.27 % 1,023.41 mbar 2.47 m/s 263.5 Deg 0.22 µg/m3
2023-01-01 13:00 3.68 µg/m3 0.16 µg/m3 76.29 µg/m3 20.03 µg/m3 7.97 µg/m3 17.53 °C 81.97 % 1,024.03 mbar 2.35 m/s 335.58 Deg 0.37 µg/m3
2023-01-01 12:00 4.52 µg/m3 0.2 µg/m3 70.6 µg/m3 17.73 µg/m3 9.93 µg/m3 17.39 °C 83.65 % 1,024.72 mbar 2.47 m/s 256.15 Deg 0.56 µg/m3
2023-01-01 11:00 5.51 µg/m3 0.25 µg/m3 68.86 µg/m3 21.1 µg/m3 16.03 µg/m3 17.32 °C 84.1 % 1,025.26 mbar 2.3 m/s 189.67 Deg 0.73 µg/m3
2023-01-01 10:00 12.99 µg/m3 0.27 µg/m3 56.46 µg/m3 35.99 µg/m3 12.91 µg/m3 16.68 °C 88.82 % 1,025.34 mbar 1.47 m/s 265.93 Deg 2.25 µg/m3
2023-01-01 09:00 37.19 µg/m3 0.43 µg/m3 30.06 µg/m3 34.41 µg/m3 19.23 µg/m3 15.2 °C 96.48 % 1,025.21 mbar 1 m/s 32.65 Deg 11.45 µg/m3
2023-01-01 08:00 35.51 µg/m3 0.32 µg/m3 30.41 µg/m3 35.33 µg/m3 18.82 µg/m3 14.45 °C 98.7 % 1,024.96 mbar 1.03 m/s 35 Deg 6.41 µg/m3
2023-01-01 07:00 38.55 µg/m3 0.32 µg/m3 21.48 µg/m3 31.72 µg/m3 9.14 µg/m3 14.1 °C 98.77 % 1,024.70 mbar 1.17 m/s 108.9 Deg 6.23 µg/m3
2023-01-01 06:00 28.17 µg/m3 0.3 µg/m3 28.45 µg/m3 22.04 µg/m3 11.01 µg/m3 13.96 °C 99.91 % 1,024.24 mbar 1.05 m/s 168.2 Deg 1.48 µg/m3
2023-01-01 05:00 29.27 µg/m3 0.26 µg/m3 31.65 µg/m3 22.43 µg/m3 12.72 µg/m3 14.38 °C 99.72 % 1,024.14 mbar 1.29 m/s 7.17 Deg 2.11 µg/m3
2023-01-01 04:00 39.47 µg/m3 0.3 µg/m3 21.74 µg/m3 26.68 µg/m3 9.2 µg/m3 14.29 °C 96.72 % 1,024.49 mbar 1.38 m/s 263.97 Deg 3.39 µg/m3
2023-01-01 03:00 40.94 µg/m3 0.23 µg/m3 23.74 µg/m3 33.24 µg/m3 13.6 µg/m3 14.4 °C 92.03 % 1,024.85 mbar 1.48 m/s 345.28 Deg 2.75 µg/m3
2023-01-01 02:00 48.88 µg/m3 0.35 µg/m3 18.48 µg/m3 30.1 µg/m3 20.07 µg/m3 14.37 °C 92.98 % 1,024.98 mbar 1.6 m/s 341.02 Deg 3.53 µg/m3
2023-01-01 01:00 49.07 µg/m3 0.31 µg/m3 16.66 µg/m3 26.11 µg/m3 12.03 µg/m3 14.58 °C 95.77 % 1,025.02 mbar 1.63 m/s 340.98 Deg 2.91 µg/m3
2023-01-01 00:00 42.18 µg/m3 0.35 µg/m3 15.98 µg/m3 33.46 µg/m3 13.54 µg/m3 14.08 °C 99.87 % 1,025.01 mbar 1.35 m/s 314.35 Deg 2.52 µg/m3
2022-12-31 23:00 50.84 µg/m3 0.27 µg/m3 15.63 µg/m3 46.22 µg/m3 11.57 µg/m3 14.77 °C 97.8 % 1,024.78 mbar 1.27 m/s 335.42 Deg 4.49 µg/m3
2022-12-31 22:00 60.24 µg/m3 0.34 µg/m3 9.29 µg/m3 34.49 µg/m3 19.64 µg/m3 14.73 °C 97.88 % 1,024.62 mbar 1.29 m/s 321.12 Deg 10.5 µg/m3
2022-12-31 21:00 56.7 µg/m3 0.32 µg/m3 15.97 µg/m3 37.09 µg/m3 14.21 µg/m3 15.03 °C 96.48 % 1,024.73 mbar 1.13 m/s 328.7 Deg 6.78 µg/m3
2022-12-31 20:00 58.94 µg/m3 0.23 µg/m3 19.63 µg/m3 29.09 µg/m3 10.12 µg/m3 15.44 °C 94.07 % 1,024.47 mbar 0.85 m/s 306.45 Deg 4.97 µg/m3
2022-12-31 19:00 47.88 µg/m3 0.16 µg/m3 35.66 µg/m3 23.5 µg/m3 6.6 µg/m3 15.95 °C 91.86 % 1,024.01 mbar 1.56 m/s 345.37 Deg 2.42 µg/m3
2022-12-31 18:00 28.33 µg/m3 0.11 µg/m3 57.18 µg/m3 31.25 µg/m3 7.97 µg/m3 16.28 °C 89.64 % 1,023.60 mbar 1.85 m/s 347.05 Deg 1.09 µg/m3
2022-12-31 17:00 16.97 µg/m3 0.09 µg/m3 68.05 µg/m3 21.76 µg/m3 9.58 µg/m3 16.78 °C 87.01 % 1,023.35 mbar 3.06 m/s 262.43 Deg 1.34 µg/m3
2022-12-31 16:00 14.6 µg/m3 0.11 µg/m3 70.28 µg/m3 20.18 µg/m3 5.79 µg/m3 17.45 °C 81.49 % 1,022.91 mbar 3.14 m/s 347.72 Deg 1.84 µg/m3
2022-12-31 15:00 8.59 µg/m3 0.12 µg/m3 77.31 µg/m3 25.87 µg/m3 8.15 µg/m3 17.81 °C 82.32 % 1,022.79 mbar 3.25 m/s 351.02 Deg 1.26 µg/m3
2022-12-31 14:00 12.89 µg/m3 0.15 µg/m3 71.17 µg/m3 17.86 µg/m3 9.61 µg/m3 18.15 °C 80.12 % 1,022.84 mbar 2.54 m/s 354.38 Deg 2.65 µg/m3
2022-12-31 13:00 15.17 µg/m3 0.14 µg/m3 67.84 µg/m3 19.5 µg/m3 13 µg/m3 18.13 °C 80.28 % 1,023.40 mbar 2.65 m/s 341.22 Deg 3.26 µg/m3
2022-12-31 12:00 13.38 µg/m3 0.17 µg/m3 68.48 µg/m3 33.77 µg/m3 7.79 µg/m3 17.86 °C 81.2 % 1,024.05 mbar 2.46 m/s 336.3 Deg 3.23 µg/m3
2022-12-31 11:00 16.24 µg/m3 0.19 µg/m3 60.64 µg/m3 40.47 µg/m3 11.78 µg/m3 17.4 °C 84.86 % 1,024.51 mbar 2.16 m/s 338.7 Deg 4.07 µg/m3
2022-12-31 10:00 24.5 µg/m3 0.26 µg/m3 48.72 µg/m3 41.77 µg/m3 19.03 µg/m3 16.48 °C 89.64 % 1,024.41 mbar 1.83 m/s 329.47 Deg 6.69 µg/m3
2022-12-31 09:00 33.94 µg/m3 0.32 µg/m3 27.43 µg/m3 24.84 µg/m3 9.77 µg/m3 14.77 °C 96.9 % 1,024.06 mbar 0.9 m/s 314.98 Deg 9.19 µg/m3
2022-12-31 08:00 38.84 µg/m3 0.19 µg/m3 21.51 µg/m3 13.41 µg/m3 11.08 µg/m3 13.25 °C 99.96 % 1,023.78 mbar 1 m/s 244.77 Deg 8.9 µg/m3
2022-12-31 07:00 27.37 µg/m3 0.12 µg/m3 29.66 µg/m3 14.37 µg/m3 6.89 µg/m3 13.51 °C 99.99 % 1,023.35 mbar 0.99 m/s 286.88 Deg 2.11 µg/m3
2022-12-31 06:00 10.97 µg/m3 0.15 µg/m3 46.51 µg/m3 12.76 µg/m3 8.87 µg/m3 13.88 °C 99.02 % 1,022.88 mbar 1.62 m/s 302.27 Deg 0.55 µg/m3
2022-12-31 05:00 6.91 µg/m3 0.09 µg/m3 51.93 µg/m3 13.18 µg/m3 6.09 µg/m3 14.13 °C 98.26 % 1,022.60 mbar 1.66 m/s 297.28 Deg 0.19 µg/m3
2022-12-31 04:00 6.37 µg/m3 0.12 µg/m3 50.38 µg/m3 20.17 µg/m3 5.64 µg/m3 13.97 °C 98.69 % 1,022.70 mbar 1.71 m/s 292.02 Deg 0.17 µg/m3
2022-12-31 03:00 8.9 µg/m3 0.07 µg/m3 43.48 µg/m3 15.57 µg/m3 7.59 µg/m3 14 °C 99.68 % 1,022.68 mbar 1.35 m/s 287.52 Deg 0.5 µg/m3
2022-12-31 02:00 13.27 µg/m3 0.11 µg/m3 42.65 µg/m3 16.81 µg/m3 10.12 µg/m3 14.22 °C 99.12 % 1,022.60 mbar 1.45 m/s 293.77 Deg 0.34 µg/m3
2022-12-31 01:00 17.91 µg/m3 0.09 µg/m3 40.37 µg/m3 21.71 µg/m3 12.83 µg/m3 14.61 °C 98.82 % 1,022.42 mbar 1.53 m/s 290.17 Deg 0.64 µg/m3
2022-12-31 00:00 19.09 µg/m3 0.14 µg/m3 35.34 µg/m3 25.65 µg/m3 12.52 µg/m3 14.63 °C 98.87 % 1,022.46 mbar 1.76 m/s 293.17 Deg 1.03 µg/m3
2022-12-30 23:00 19.95 µg/m3 0.06 µg/m3 33.74 µg/m3 33.4 µg/m3 14.84 µg/m3 14.92 °C 99.27 % 1,022.18 mbar 1.67 m/s 286.52 Deg 1.04 µg/m3
2022-12-30 22:00 28.77 µg/m3 0.11 µg/m3 25.37 µg/m3 30.09 µg/m3 6.39 µg/m3 14.96 °C 99.72 % 1,022.07 mbar 1.72 m/s 290.35 Deg 2.16 µg/m3
2022-12-30 21:00 34.62 µg/m3 0.14 µg/m3 28.12 µg/m3 18.25 µg/m3 6.77 µg/m3 15.26 °C 98.68 % 1,021.72 mbar 1.49 m/s 297.07 Deg 2.79 µg/m3
2022-12-30 20:00 43.94 µg/m3 0.19 µg/m3 24.95 µg/m3 12.61 µg/m3 8.37 µg/m3 15.83 °C 95.97 % 1,021.55 mbar 1.51 m/s 301.23 Deg 4.67 µg/m3
2022-12-30 19:00 35.01 µg/m3 0.12 µg/m3 33.68 µg/m3 11.26 µg/m3 5.06 µg/m3 16.4 °C 91.25 % 1,021.11 mbar 1.29 m/s 296.98 Deg 2.92 µg/m3
2022-12-30 18:00 23.54 µg/m3 0.09 µg/m3 45.21 µg/m3 11.26 µg/m3 5.36 µg/m3 17.07 °C 90.46 % 1,020.47 mbar 1.82 m/s 274.87 Deg 1.41 µg/m3
2022-12-30 17:00 12.33 µg/m3 0.07 µg/m3 58.44 µg/m3 13.7 µg/m3 3.97 µg/m3 17.95 °C 90.7 % 1,020.07 mbar 2.36 m/s 262.37 Deg 0.88 µg/m3
2022-12-30 16:00 8.84 µg/m3 0.06 µg/m3 62.11 µg/m3 10.93 µg/m3 5.06 µg/m3 18.92 °C 83.83 % 1,019.91 mbar 2.39 m/s 252.03 Deg 1.17 µg/m3
2022-12-30 15:00 7.9 µg/m3 0.05 µg/m3 68.82 µg/m3 7.75 µg/m3 7.23 µg/m3 19.24 °C 79.18 % 1,019.81 mbar 2.71 m/s 255.75 Deg 1.35 µg/m3
2022-12-30 14:00 6.55 µg/m3 0.09 µg/m3 71.22 µg/m3 9.38 µg/m3 7.75 µg/m3 19.36 °C 75.24 % 1,019.83 mbar 3.16 m/s 258.85 Deg 1.1 µg/m3
2022-12-30 13:00 7.48 µg/m3 0.05 µg/m3 72.94 µg/m3 14.85 µg/m3 8.56 µg/m3 19.52 °C 76.91 % 1,020.11 mbar 2.67 m/s 242.7 Deg 1.28 µg/m3
2022-12-30 12:00 4.99 µg/m3 0.04 µg/m3 79.37 µg/m3 24.92 µg/m3 12.72 µg/m3 19.01 °C 85.19 % 1,020.57 mbar 2.85 m/s 223.05 Deg 0.64 µg/m3
2022-12-30 11:00 6.56 µg/m3 0.08 µg/m3 82.13 µg/m3 23.25 µg/m3 18.62 µg/m3 18.61 °C 90.18 % 1,021.01 mbar 2.53 m/s 221.35 Deg 0.89 µg/m3
2022-12-30 10:00 7.66 µg/m3 0.1 µg/m3 80.31 µg/m3 32.33 µg/m3 10.21 µg/m3 17.86 °C 94.92 % 1,020.84 mbar 2.33 m/s 222.57 Deg 0.85 µg/m3
2022-12-30 09:00 24.4 µg/m3 0.13 µg/m3 52.93 µg/m3 22.88 µg/m3 6.92 µg/m3 16.56 °C 99.57 % 1,020.40 mbar 1.6 m/s 225.68 Deg 4.05 µg/m3
2022-12-30 08:00 22.79 µg/m3 0.07 µg/m3 51.22 µg/m3 10.22 µg/m3 6.8 µg/m3 15.68 °C 99.9 % 1,020.16 mbar 1.67 m/s 237.87 Deg 1.42 µg/m3
2022-12-30 07:00 24.19 µg/m3 0.08 µg/m3 46.87 µg/m3 8.8 µg/m3 5.24 µg/m3 15.43 °C 99.9 % 1,019.71 mbar 1.21 m/s 233.55 Deg 1.41 µg/m3
2022-12-30 06:00 16.75 µg/m3 0.06 µg/m3 51.75 µg/m3 10.66 µg/m3 7.01 µg/m3 15.33 °C 99.9 % 1,019.27 mbar 1.32 m/s 229.9 Deg 1.27 µg/m3
2022-12-30 05:00 5.3 µg/m3 0.07 µg/m3 65.25 µg/m3 11.03 µg/m3 6.54 µg/m3 15.64 °C 99.9 % 1,019.29 mbar 1.42 m/s 241.27 Deg 0.05 µg/m3

It is to be noted that the data is provisional and subject to quality assurance procedures. For validated data kindly refer your request to contact.air@era.org.mt